VIR47GH EGLL-CYYZ
Flight info
| Callsign | VIR47GH |
|---|---|
| Flight time | 6h 58m |
| Altitude | 24000 |
| Route | CPT L9 DIDZA N14 BIBPE/N0485F380 N14 ELNIF DCT MEDOG DCT KRAGY DCT PEMOB DCT VATRY DCT RESNO/M084F390 NATC LOMSI/N0490F400 N672A ANATI Q812 MAIRE DCT OBTAX Q824 LETAK IMEBA9 |
| Aircraft | A35K/H-SDE2E3GHIJ3J4J5LM1ORWXY/LB1D1 |
Departure
| Time | 2026-05-05 14:16 |
|---|---|
| Airport | London Heathrow Airport (EGLL) |
Arrival
| Time | 2026-05-05 21:15 |
|---|---|
| Airport | Toronto Pearson International Airport (CYYZ) |
| Time | Latitude | Longitude | Altitude | Speed | Heading |
|---|---|---|---|---|---|
| 2026-05-05 13:28 | 51.46850 | -0.46350 | 91 ft | 0 kts | 55° |
| 2026-05-05 14:04 | 51.46839 | -0.46375 | 92 ft | 4 kts | 56° |
| 2026-05-05 14:04 | 51.46826 | -0.46406 | 93 ft | 4 kts | 59° |
| 2026-05-05 14:04 | 51.46816 | -0.46438 | 92 ft | 4 kts | 88° |
| 2026-05-05 14:05 | 51.46818 | -0.46467 | 93 ft | 4 kts | 127° |
| 2026-05-05 14:05 | 51.46835 | -0.46494 | 92 ft | 4 kts | 146° |
| 2026-05-05 14:05 | 51.46855 | -0.46515 | 93 ft | 1 kts | 144° |
| 2026-05-05 14:05 | 51.46859 | -0.46519 | 93 ft | 0 kts | 144° |
| 2026-05-05 14:08 | 51.46857 | -0.46517 | 93 ft | 1 kts | 144° |
| 2026-05-05 14:08 | 51.46845 | -0.46504 | 94 ft | 0 kts | 144° |
| 2026-05-05 14:08 | 51.46835 | -0.46492 | 92 ft | 3 kts | 144° |
| 2026-05-05 14:09 | 51.46810 | -0.46463 | 92 ft | 6 kts | 144° |
| 2026-05-05 14:09 | 51.46766 | -0.46430 | 91 ft | 8 kts | 161° |
| 2026-05-05 14:09 | 51.46705 | -0.46420 | 92 ft | 9 kts | 176° |
| 2026-05-05 14:09 | 51.46668 | -0.46470 | 93 ft | 6 kts | 246° |
| 2026-05-05 14:10 | 51.46660 | -0.46559 | 97 ft | 14 kts | 269° |
| 2026-05-05 14:10 | 51.46659 | -0.46744 | 97 ft | 18 kts | 269° |
| 2026-05-05 14:10 | 51.46658 | -0.46959 | 95 ft | 21 kts | 270° |
| 2026-05-05 14:10 | 51.46658 | -0.47204 | 93 ft | 23 kts | 270° |
| 2026-05-05 14:11 | 51.46655 | -0.47478 | 90 ft | 25 kts | 269° |
| 2026-05-05 14:11 | 51.46655 | -0.47768 | 91 ft | 26 kts | 271° |
| 2026-05-05 14:11 | 51.46653 | -0.48056 | 92 ft | 25 kts | 270° |
| 2026-05-05 14:11 | 51.46654 | -0.48284 | 93 ft | 13 kts | 270° |
| 2026-05-05 14:12 | 51.46654 | -0.48348 | 93 ft | 4 kts | 269° |
| 2026-05-05 14:12 | 51.46654 | -0.48403 | 93 ft | 6 kts | 272° |
| 2026-05-05 14:12 | 51.46662 | -0.48474 | 94 ft | 6 kts | 274° |
| 2026-05-05 14:12 | 51.46655 | -0.48551 | 96 ft | 8 kts | 262° |
| 2026-05-05 14:13 | 51.46651 | -0.48655 | 92 ft | 10 kts | 268° |
| 2026-05-05 14:13 | 51.46635 | -0.48739 | 96 ft | 9 kts | 227° |
| 2026-05-05 14:13 | 51.46589 | -0.48768 | 93 ft | 3 kts | 197° |
| 2026-05-05 14:13 | 51.46588 | -0.48768 | 94 ft | 0 kts | 197° |
| 2026-05-05 14:14 | 51.46583 | -0.48771 | 94 ft | 2 kts | 197° |
| 2026-05-05 14:14 | 51.46560 | -0.48779 | 93 ft | 4 kts | 191° |
| 2026-05-05 14:14 | 51.46525 | -0.48781 | 94 ft | 5 kts | 170° |
| 2026-05-05 14:14 | 51.46497 | -0.48750 | 94 ft | 5 kts | 131° |
| 2026-05-05 14:15 | 51.46481 | -0.48699 | 95 ft | 6 kts | 106° |
| 2026-05-05 14:15 | 51.46479 | -0.48660 | 94 ft | 3 kts | 92° |
| 2026-05-05 14:15 | 51.46479 | -0.48659 | 94 ft | 0 kts | 91° |
| 2026-05-05 14:16 | 51.46479 | -0.48545 | 92 ft | 39 kts | 89° |
| 2026-05-05 14:16 | 51.46483 | -0.47727 | 91 ft | 106 kts | 90° |
| 2026-05-05 14:16 | 51.46486 | -0.46224 | 106 ft | 160 kts | 89° |
| 2026-05-05 14:16 | 51.46482 | -0.44460 | 856 ft | 152 kts | 86° |
| 2026-05-05 14:17 | 51.46502 | -0.42754 | 1531 ft | 161 kts | 86° |
| 2026-05-05 14:17 | 51.46371 | -0.40845 | 1804 ft | 186 kts | 102° |
| 2026-05-05 14:17 | 51.45711 | -0.38882 | 2021 ft | 217 kts | 129° |
| 2026-05-05 14:17 | 51.44389 | -0.37476 | 2302 ft | 244 kts | 160° |
| 2026-05-05 14:18 | 51.42656 | -0.37345 | 2867 ft | 257 kts | 192° |
| 2026-05-05 14:18 | 51.41074 | -0.38677 | 3565 ft | 263 kts | 224° |
| 2026-05-05 14:18 | 51.40138 | -0.41179 | 4268 ft | 266 kts | 258° |
| 2026-05-05 14:18 | 51.40128 | -0.44106 | 5015 ft | 265 kts | 282° |
| 2026-05-05 14:19 | 51.40500 | -0.47005 | 5787 ft | 267 kts | 283° |
| 2026-05-05 14:19 | 51.40870 | -0.49927 | 6527 ft | 270 kts | 282° |
| 2026-05-05 14:19 | 51.41223 | -0.52906 | 7220 ft | 273 kts | 281° |
| 2026-05-05 14:19 | 51.41570 | -0.55916 | 7949 ft | 276 kts | 281° |
| 2026-05-05 14:20 | 51.41918 | -0.58964 | 8680 ft | 279 kts | 281° |
| 2026-05-05 14:20 | 51.42266 | -0.62035 | 9395 ft | 282 kts | 281° |
| 2026-05-05 14:20 | 51.42609 | -0.65104 | 10072 ft | 285 kts | 281° |
| 2026-05-05 14:20 | 51.42966 | -0.68304 | 10451 ft | 299 kts | 281° |
| 2026-05-05 14:21 | 51.43341 | -0.71669 | 10755 ft | 315 kts | 281° |
| 2026-05-05 14:21 | 51.43735 | -0.75218 | 11063 ft | 330 kts | 281° |
| 2026-05-05 14:21 | 51.44168 | -0.78908 | 11384 ft | 343 kts | 282° |
| 2026-05-05 14:21 | 51.44639 | -0.82707 | 11868 ft | 350 kts | 282° |
| 2026-05-05 14:22 | 51.45114 | -0.86556 | 12414 ft | 355 kts | 282° |
| 2026-05-05 14:22 | 51.45593 | -0.90464 | 12984 ft | 359 kts | 281° |
| 2026-05-05 14:22 | 51.46050 | -0.94408 | 13564 ft | 362 kts | 281° |
| 2026-05-05 14:22 | 51.46501 | -0.98408 | 14081 ft | 366 kts | 281° |
| 2026-05-05 14:23 | 51.46960 | -1.02441 | 14612 ft | 369 kts | 281° |
| 2026-05-05 14:23 | 51.47424 | -1.06489 | 15138 ft | 371 kts | 281° |
| 2026-05-05 14:23 | 51.47886 | -1.10593 | 15683 ft | 374 kts | 280° |
| 2026-05-05 14:23 | 51.48349 | -1.14709 | 16221 ft | 376 kts | 280° |
| 2026-05-05 14:24 | 51.48874 | -1.18854 | 16753 ft | 379 kts | 285° |
| 2026-05-05 14:24 | 51.49921 | -1.22676 | 17240 ft | 382 kts | 303° |
| 2026-05-05 14:24 | 51.51608 | -1.25976 | 17805 ft | 384 kts | 313° |
| 2026-05-05 14:24 | 51.53504 | -1.29017 | 18304 ft | 387 kts | 316° |
| 2026-05-05 14:25 | 51.55496 | -1.31956 | 18757 ft | 390 kts | 317° |
| 2026-05-05 14:25 | 51.57521 | -1.34872 | 19232 ft | 392 kts | 317° |
| 2026-05-05 14:25 | 51.59520 | -1.37855 | 19683 ft | 394 kts | 313° |
| 2026-05-05 14:25 | 51.61224 | -1.41306 | 20154 ft | 394 kts | 302° |
| 2026-05-05 14:26 | 51.62679 | -1.45053 | 20625 ft | 395 kts | 299° |
| 2026-05-05 14:26 | 51.64033 | -1.48924 | 21068 ft | 397 kts | 297° |
| 2026-05-05 14:26 | 51.65334 | -1.52856 | 21500 ft | 400 kts | 296° |
| 2026-05-05 14:26 | 51.66627 | -1.56849 | 21955 ft | 402 kts | 296° |
| 2026-05-05 14:27 | 51.67921 | -1.60856 | 22394 ft | 405 kts | 296° |
| 2026-05-05 14:27 | 51.69219 | -1.64903 | 22805 ft | 407 kts | 294° |
| 2026-05-05 14:27 | 51.70225 | -1.69175 | 23250 ft | 408 kts | 283° |
| 2026-05-05 14:27 | 51.70798 | -1.73658 | 23660 ft | 409 kts | 278° |
| 2026-05-05 14:28 | 51.71215 | -1.78209 | 24013 ft | 411 kts | 276° |
| 2026-05-05 14:28 | 51.71564 | -1.82781 | 24370 ft | 413 kts | 276° |
| 2026-05-05 14:28 | 51.72070 | -1.87379 | 24738 ft | 416 kts | 280° |
| 2026-05-05 14:28 | 51.72670 | -1.91951 | 25117 ft | 418 kts | 281° |
| 2026-05-05 14:29 | 51.73314 | -1.96543 | 25499 ft | 420 kts | 281° |
| 2026-05-05 14:29 | 51.73977 | -2.01086 | 25884 ft | 422 kts | 282° |
| 2026-05-05 14:29 | 51.74666 | -2.05725 | 26295 ft | 425 kts | 282° |
| 2026-05-05 14:29 | 51.75357 | -2.10363 | 26696 ft | 427 kts | 282° |
| 2026-05-05 14:30 | 51.76052 | -2.15038 | 27108 ft | 429 kts | 281° |
| 2026-05-05 14:30 | 51.76744 | -2.19720 | 27539 ft | 431 kts | 281° |
| 2026-05-05 14:30 | 51.77438 | -2.24452 | 27973 ft | 433 kts | 281° |
| 2026-05-05 14:30 | 51.78129 | -2.29184 | 28414 ft | 435 kts | 281° |
| 2026-05-05 14:31 | 51.78822 | -2.33955 | 28853 ft | 437 kts | 281° |
| 2026-05-05 14:31 | 51.79517 | -2.38748 | 29288 ft | 439 kts | 281° |
| 2026-05-05 14:31 | 51.80204 | -2.43511 | 29713 ft | 442 kts | 281° |
| 2026-05-05 14:31 | 51.80902 | -2.48363 | 30122 ft | 444 kts | 281° |
| 2026-05-05 14:32 | 51.81600 | -2.53233 | 30454 ft | 447 kts | 281° |
| 2026-05-05 14:32 | 51.82303 | -2.58156 | 30782 ft | 451 kts | 281° |
| 2026-05-05 14:32 | 51.82990 | -2.63125 | 31100 ft | 454 kts | 281° |
| 2026-05-05 14:32 | 51.83665 | -2.68131 | 31417 ft | 457 kts | 280° |
| 2026-05-05 14:33 | 51.84336 | -2.73169 | 31735 ft | 460 kts | 281° |
| 2026-05-05 14:33 | 51.85010 | -2.78246 | 32045 ft | 463 kts | 281° |
| 2026-05-05 14:33 | 51.85690 | -2.83352 | 32343 ft | 466 kts | 281° |
| 2026-05-05 14:33 | 51.86381 | -2.88496 | 32642 ft | 469 kts | 281° |
| 2026-05-05 14:34 | 51.87071 | -2.93660 | 32922 ft | 471 kts | 281° |
| 2026-05-05 14:34 | 51.87761 | -2.98866 | 33197 ft | 474 kts | 281° |
| 2026-05-05 14:34 | 51.88446 | -3.04088 | 33428 ft | 478 kts | 281° |
| 2026-05-05 14:34 | 51.89142 | -3.09375 | 33706 ft | 480 kts | 281° |
| 2026-05-05 14:35 | 51.89839 | -3.14671 | 34067 ft | 480 kts | 282° |
| 2026-05-05 14:35 | 51.90533 | -3.19960 | 34388 ft | 480 kts | 282° |
| 2026-05-05 14:35 | 51.91214 | -3.25176 | 34716 ft | 479 kts | 282° |
| 2026-05-05 14:35 | 51.91909 | -3.30527 | 35066 ft | 479 kts | 282° |
| 2026-05-05 14:36 | 51.92583 | -3.35737 | 35370 ft | 478 kts | 282° |
| 2026-05-05 14:36 | 51.93263 | -3.41008 | 35683 ft | 478 kts | 282° |
| 2026-05-05 14:36 | 51.93940 | -3.46282 | 35978 ft | 479 kts | 282° |
| 2026-05-05 14:36 | 51.94618 | -3.51578 | 36305 ft | 478 kts | 282° |
| 2026-05-05 14:37 | 51.95292 | -3.56861 | 36602 ft | 479 kts | 282° |
| 2026-05-05 14:37 | 51.95963 | -3.62145 | 36899 ft | 478 kts | 282° |
| 2026-05-05 14:37 | 51.96631 | -3.67427 | 37195 ft | 478 kts | 281° |
| 2026-05-05 14:37 | 51.97297 | -3.72716 | 37499 ft | 478 kts | 281° |
| 2026-05-05 14:38 | 51.97959 | -3.77992 | 37809 ft | 477 kts | 281° |
| 2026-05-05 14:38 | 51.98616 | -3.83253 | 38123 ft | 476 kts | 281° |
| 2026-05-05 14:38 | 51.99273 | -3.88523 | 38410 ft | 476 kts | 281° |
| 2026-05-05 14:38 | 51.99925 | -3.93778 | 38666 ft | 476 kts | 281° |
| 2026-05-05 14:39 | 52.00575 | -3.99041 | 38877 ft | 475 kts | 281° |
| 2026-05-05 14:39 | 52.01215 | -4.04245 | 39072 ft | 475 kts | 281° |
| 2026-05-05 14:39 | 52.01858 | -4.09489 | 39259 ft | 475 kts | 281° |
| 2026-05-05 14:39 | 52.02500 | -4.14747 | 39464 ft | 474 kts | 281° |
| 2026-05-05 14:40 | 52.03139 | -4.20001 | 39636 ft | 474 kts | 281° |
| 2026-05-05 14:40 | 52.03775 | -4.25245 | 39813 ft | 474 kts | 281° |
| 2026-05-05 14:40 | 52.04410 | -4.30500 | 39971 ft | 474 kts | 281° |
| 2026-05-05 14:40 | 52.05045 | -4.35786 | 40026 ft | 477 kts | 281° |
| 2026-05-05 14:41 | 52.06098 | -4.44596 | 40033 ft | 477 kts | 281° |
| 2026-05-05 14:41 | 52.07353 | -4.55173 | 40035 ft | 477 kts | 281° |
| 2026-05-05 14:42 | 52.08601 | -4.65773 | 40037 ft | 477 kts | 281° |
| 2026-05-05 14:42 | 52.09838 | -4.76364 | 40044 ft | 477 kts | 281° |
| 2026-05-05 14:43 | 52.11066 | -4.86963 | 40044 ft | 477 kts | 281° |
| 2026-05-05 14:43 | 52.12287 | -4.97574 | 40047 ft | 476 kts | 281° |
| 2026-05-05 14:44 | 52.14198 | -5.07869 | 40051 ft | 476 kts | 295° |
| 2026-05-05 14:44 | 52.17879 | -5.16788 | 40054 ft | 477 kts | 313° |
| 2026-05-05 14:45 | 52.23117 | -5.23302 | 40058 ft | 479 kts | 330° |
| 2026-05-05 14:45 | 52.29040 | -5.28308 | 40059 ft | 480 kts | 332° |
| 2026-05-05 14:46 | 52.35043 | -5.33149 | 40049 ft | 480 kts | 332° |
| 2026-05-05 14:46 | 52.41028 | -5.38024 | 40063 ft | 480 kts | 332° |
| 2026-05-05 14:47 | 52.46998 | -5.42953 | 40050 ft | 480 kts | 332° |
| 2026-05-05 14:47 | 52.52735 | -5.48512 | 40066 ft | 478 kts | 321° |
| 2026-05-05 14:48 | 52.57280 | -5.56408 | 40048 ft | 475 kts | 303° |
| 2026-05-05 14:48 | 52.60521 | -5.65871 | 40051 ft | 476 kts | 297° |
| 2026-05-05 14:49 | 52.63515 | -5.75582 | 40071 ft | 477 kts | 296° |
| 2026-05-05 14:49 | 52.66478 | -5.85288 | 40057 ft | 477 kts | 296° |
| 2026-05-05 14:50 | 52.69477 | -5.95048 | 40074 ft | 477 kts | 296° |
| 2026-05-05 14:50 | 52.72478 | -6.04803 | 40057 ft | 477 kts | 296° |
| 2026-05-05 14:51 | 52.75479 | -6.14586 | 40059 ft | 477 kts | 296° |
| 2026-05-05 14:51 | 52.78461 | -6.24350 | 40068 ft | 476 kts | 296° |
| 2026-05-05 14:52 | 52.81421 | -6.34084 | 40053 ft | 477 kts | 296° |
| 2026-05-05 14:52 | 52.84388 | -6.43885 | 40055 ft | 477 kts | 296° |
| 2026-05-05 14:53 | 52.87353 | -6.53716 | 40055 ft | 477 kts | 296° |
| 2026-05-05 14:53 | 52.90308 | -6.63556 | 40056 ft | 477 kts | 296° |
| 2026-05-05 14:54 | 52.93252 | -6.73397 | 40055 ft | 476 kts | 296° |
| 2026-05-05 14:54 | 52.96189 | -6.83259 | 40055 ft | 476 kts | 296° |
| 2026-05-05 14:55 | 52.99092 | -6.93048 | 40057 ft | 476 kts | 296° |
| 2026-05-05 14:55 | 53.02006 | -7.02911 | 40063 ft | 476 kts | 295° |
| 2026-05-05 14:56 | 53.04910 | -7.12783 | 40060 ft | 476 kts | 295° |
| 2026-05-05 14:56 | 53.07805 | -7.22664 | 40059 ft | 475 kts | 295° |
| 2026-05-05 14:57 | 53.10693 | -7.32562 | 40058 ft | 475 kts | 295° |
| 2026-05-05 14:57 | 53.13569 | -7.42462 | 40064 ft | 475 kts | 295° |
| 2026-05-05 14:58 | 53.16437 | -7.52377 | 40061 ft | 475 kts | 295° |
| 2026-05-05 14:58 | 53.19299 | -7.62312 | 40064 ft | 475 kts | 295° |
| 2026-05-05 14:59 | 53.22132 | -7.72189 | 40060 ft | 474 kts | 295° |
| 2026-05-05 14:59 | 53.24991 | -7.82194 | 40068 ft | 474 kts | 295° |
| 2026-05-05 15:00 | 53.27343 | -7.90462 | 40073 ft | 474 kts | 295° |
| 2026-05-05 15:00 | 53.30625 | -8.02045 | 40066 ft | 474 kts | 295° |
| 2026-05-05 15:01 | 53.33439 | -8.12021 | 40066 ft | 474 kts | 295° |
| 2026-05-05 15:01 | 53.36240 | -8.21998 | 40071 ft | 474 kts | 294° |
| 2026-05-05 15:02 | 53.39036 | -8.31996 | 40073 ft | 474 kts | 294° |
| 2026-05-05 15:02 | 53.41827 | -8.42019 | 40068 ft | 474 kts | 294° |
| 2026-05-05 15:03 | 53.44605 | -8.52038 | 40075 ft | 473 kts | 294° |
| 2026-05-05 15:03 | 53.47372 | -8.62064 | 40074 ft | 473 kts | 294° |
| 2026-05-05 15:04 | 53.50127 | -8.72089 | 40079 ft | 473 kts | 294° |
| 2026-05-05 15:04 | 53.52879 | -8.82144 | 40080 ft | 473 kts | 294° |
| 2026-05-05 15:05 | 53.56968 | -8.97170 | 40086 ft | 473 kts | 294° |
| 2026-05-05 15:06 | 53.59699 | -9.07259 | 40096 ft | 473 kts | 294° |
| 2026-05-05 15:06 | 53.62417 | -9.17347 | 40094 ft | 473 kts | 294° |
| 2026-05-05 15:07 | 53.65131 | -9.27464 | 40093 ft | 473 kts | 294° |
| 2026-05-05 15:07 | 53.67829 | -9.37564 | 40098 ft | 473 kts | 294° |
| 2026-05-05 15:08 | 53.70522 | -9.47688 | 40101 ft | 473 kts | 294° |
| 2026-05-05 15:08 | 53.73205 | -9.57822 | 40106 ft | 473 kts | 294° |
| 2026-05-05 15:09 | 53.75885 | -9.67992 | 40111 ft | 473 kts | 294° |
| 2026-05-05 15:09 | 53.78534 | -9.78087 | 40119 ft | 473 kts | 293° |
| 2026-05-05 15:10 | 53.81194 | -9.88273 | 40123 ft | 473 kts | 293° |
| 2026-05-05 15:10 | 53.83841 | -9.98454 | 40125 ft | 473 kts | 293° |
| 2026-05-05 15:11 | 53.86482 | -10.08655 | 40124 ft | 473 kts | 293° |
| 2026-05-05 15:11 | 53.89118 | -10.18886 | 40132 ft | 473 kts | 293° |
| 2026-05-05 15:12 | 53.91742 | -10.29115 | 40135 ft | 473 kts | 293° |
| 2026-05-05 15:12 | 53.94355 | -10.39348 | 40136 ft | 473 kts | 293° |
| 2026-05-05 15:13 | 53.96962 | -10.49607 | 40143 ft | 473 kts | 293° |
| 2026-05-05 15:13 | 53.99540 | -10.59799 | 40139 ft | 473 kts | 293° |
| 2026-05-05 15:14 | 54.02131 | -10.70086 | 40140 ft | 473 kts | 293° |
| 2026-05-05 15:14 | 54.04707 | -10.80360 | 40140 ft | 473 kts | 292° |
| 2026-05-05 15:15 | 54.07279 | -10.90668 | 40150 ft | 473 kts | 292° |
| 2026-05-05 15:15 | 54.09839 | -11.00980 | 40149 ft | 472 kts | 292° |
| 2026-05-05 15:16 | 54.12395 | -11.11318 | 40148 ft | 472 kts | 292° |
| 2026-05-05 15:16 | 54.14936 | -11.21647 | 40151 ft | 472 kts | 292° |
| 2026-05-05 15:17 | 54.17449 | -11.31908 | 40154 ft | 472 kts | 292° |
| 2026-05-05 15:17 | 54.19973 | -11.42265 | 40158 ft | 472 kts | 292° |
| 2026-05-05 15:18 | 54.22487 | -11.52628 | 40158 ft | 472 kts | 292° |
| 2026-05-05 15:18 | 54.24994 | -11.63016 | 40159 ft | 472 kts | 292° |
| 2026-05-05 15:19 | 54.27494 | -11.73419 | 40160 ft | 472 kts | 292° |
| 2026-05-05 15:19 | 54.29981 | -11.83824 | 40164 ft | 472 kts | 292° |
| 2026-05-05 15:20 | 54.32462 | -11.94246 | 40163 ft | 472 kts | 292° |
| 2026-05-05 15:20 | 54.34916 | -12.04612 | 40166 ft | 472 kts | 292° |
| 2026-05-05 15:21 | 54.37378 | -12.15057 | 40166 ft | 472 kts | 292° |
| 2026-05-05 15:21 | 54.39829 | -12.25506 | 40168 ft | 472 kts | 291° |
| 2026-05-05 15:22 | 54.42274 | -12.35983 | 40172 ft | 472 kts | 291° |
| 2026-05-05 15:22 | 54.44710 | -12.46475 | 40169 ft | 472 kts | 291° |
| 2026-05-05 15:23 | 54.47123 | -12.56916 | 40173 ft | 472 kts | 291° |
| 2026-05-05 15:23 | 54.49542 | -12.67433 | 40175 ft | 472 kts | 291° |
| 2026-05-05 15:24 | 54.51947 | -12.77943 | 40175 ft | 472 kts | 291° |
| 2026-05-05 15:24 | 54.54344 | -12.88473 | 40178 ft | 472 kts | 291° |
| 2026-05-05 15:25 | 54.56721 | -12.98964 | 40179 ft | 472 kts | 291° |
| 2026-05-05 15:25 | 54.59098 | -13.09507 | 40178 ft | 472 kts | 291° |
| 2026-05-05 15:26 | 54.61466 | -13.20066 | 40182 ft | 472 kts | 291° |
| 2026-05-05 15:26 | 54.63825 | -13.30639 | 40180 ft | 472 kts | 291° |
| 2026-05-05 15:27 | 54.66177 | -13.41231 | 40181 ft | 472 kts | 291° |
| 2026-05-05 15:27 | 54.68519 | -13.51832 | 40184 ft | 472 kts | 291° |
| 2026-05-05 15:28 | 54.70850 | -13.62440 | 40185 ft | 472 kts | 291° |
| 2026-05-05 15:28 | 54.73175 | -13.73071 | 40185 ft | 472 kts | 290° |
| 2026-05-05 15:29 | 54.75475 | -13.83644 | 40188 ft | 472 kts | 290° |
| 2026-05-05 15:29 | 54.77777 | -13.94281 | 40190 ft | 472 kts | 290° |
| 2026-05-05 15:30 | 54.80070 | -14.04933 | 40193 ft | 472 kts | 290° |
| 2026-05-05 15:30 | 54.81970 | -14.13800 | 40191 ft | 472 kts | 290° |
| 2026-05-05 15:31 | 54.84250 | -14.24489 | 40192 ft | 472 kts | 290° |
| 2026-05-05 15:31 | 54.86518 | -14.35185 | 40195 ft | 472 kts | 290° |
| 2026-05-05 15:32 | 54.88776 | -14.45884 | 40197 ft | 472 kts | 290° |
| 2026-05-05 15:32 | 54.91012 | -14.56537 | 40197 ft | 472 kts | 290° |
| 2026-05-05 15:33 | 54.93250 | -14.67255 | 40196 ft | 472 kts | 290° |
| 2026-05-05 15:33 | 54.95477 | -14.77982 | 40199 ft | 472 kts | 290° |
| 2026-05-05 15:34 | 54.97700 | -14.88741 | 40201 ft | 472 kts | 290° |
| 2026-05-05 15:34 | 54.99913 | -14.99511 | 40199 ft | 472 kts | 290° |
| 2026-05-05 15:35 | 55.02217 | -15.10216 | 40204 ft | 472 kts | 292° |
| 2026-05-05 15:35 | 55.04651 | -15.20843 | 40204 ft | 471 kts | 292° |
| 2026-05-05 15:36 | 55.07063 | -15.31470 | 40206 ft | 471 kts | 291° |
| 2026-05-05 15:36 | 55.09428 | -15.42076 | 40203 ft | 471 kts | 291° |
| 2026-05-05 15:37 | 55.11786 | -15.52760 | 40206 ft | 471 kts | 291° |
| 2026-05-05 15:37 | 55.14133 | -15.63453 | 40210 ft | 471 kts | 291° |
| 2026-05-05 15:38 | 55.16473 | -15.74162 | 40210 ft | 471 kts | 291° |
| 2026-05-05 15:38 | 55.18806 | -15.84894 | 40213 ft | 471 kts | 291° |
| 2026-05-05 15:39 | 55.21129 | -15.95630 | 40211 ft | 471 kts | 291° |
| 2026-05-05 15:39 | 55.23441 | -16.06375 | 40213 ft | 472 kts | 291° |
| 2026-05-05 15:40 | 55.25731 | -16.17074 | 40214 ft | 471 kts | 291° |
| 2026-05-05 15:40 | 55.28027 | -16.27857 | 40217 ft | 472 kts | 291° |
| 2026-05-05 15:41 | 55.30312 | -16.38644 | 40216 ft | 472 kts | 291° |
| 2026-05-05 15:41 | 55.32587 | -16.49443 | 40217 ft | 472 kts | 291° |
| 2026-05-05 15:42 | 55.34857 | -16.60276 | 40222 ft | 472 kts | 291° |
| 2026-05-05 15:42 | 55.37112 | -16.71095 | 40221 ft | 472 kts | 291° |
| 2026-05-05 15:43 | 55.39360 | -16.81941 | 40224 ft | 472 kts | 291° |
| 2026-05-05 15:43 | 55.41599 | -16.92800 | 40222 ft | 472 kts | 291° |
| 2026-05-05 15:44 | 55.43814 | -17.03599 | 40228 ft | 472 kts | 290° |
| 2026-05-05 15:44 | 55.46032 | -17.14474 | 40223 ft | 472 kts | 290° |
| 2026-05-05 15:45 | 55.48245 | -17.25382 | 40224 ft | 472 kts | 290° |
| 2026-05-05 15:45 | 55.50447 | -17.36297 | 40235 ft | 472 kts | 290° |
| 2026-05-05 15:46 | 55.52639 | -17.47223 | 40232 ft | 472 kts | 290° |
| 2026-05-05 15:46 | 55.54821 | -17.58161 | 40231 ft | 472 kts | 290° |
| 2026-05-05 15:47 | 55.56985 | -17.69071 | 40237 ft | 472 kts | 290° |
| 2026-05-05 15:47 | 55.59145 | -17.80019 | 40236 ft | 472 kts | 290° |
| 2026-05-05 15:48 | 55.61304 | -17.91024 | 40235 ft | 472 kts | 290° |
| 2026-05-05 15:48 | 55.63447 | -18.02012 | 40235 ft | 472 kts | 290° |
| 2026-05-05 15:49 | 55.65582 | -18.13019 | 40237 ft | 472 kts | 290° |
| 2026-05-05 15:49 | 55.67706 | -18.24030 | 40239 ft | 472 kts | 290° |
| 2026-05-05 15:50 | 55.69821 | -18.35061 | 40243 ft | 472 kts | 290° |
| 2026-05-05 15:50 | 55.71857 | -18.45742 | 40243 ft | 472 kts | 290° |
| 2026-05-05 15:51 | 55.73952 | -18.56789 | 40238 ft | 472 kts | 290° |
| 2026-05-05 15:51 | 55.76039 | -18.67864 | 40236 ft | 472 kts | 290° |
| 2026-05-05 15:52 | 55.78112 | -18.78929 | 40244 ft | 472 kts | 290° |
| 2026-05-05 15:52 | 55.80177 | -18.90013 | 40242 ft | 472 kts | 290° |
| 2026-05-05 15:53 | 55.82232 | -19.01109 | 40241 ft | 472 kts | 289° |
| 2026-05-05 15:53 | 55.84278 | -19.12224 | 40244 ft | 472 kts | 289° |
| 2026-05-05 15:54 | 55.86298 | -19.23261 | 40253 ft | 472 kts | 289° |
| 2026-05-05 15:54 | 55.88319 | -19.34368 | 40249 ft | 472 kts | 289° |
| 2026-05-05 15:55 | 55.90336 | -19.45524 | 40252 ft | 472 kts | 289° |
| 2026-05-05 15:55 | 55.92338 | -19.56664 | 40251 ft | 472 kts | 289° |
| 2026-05-05 15:56 | 55.94251 | -19.67371 | 40251 ft | 472 kts | 289° |
| 2026-05-05 15:56 | 55.96233 | -19.78528 | 40253 ft | 472 kts | 289° |
| 2026-05-05 15:57 | 55.98206 | -19.89708 | 40252 ft | 471 kts | 289° |
| 2026-05-05 15:57 | 55.99896 | -20.00939 | 40253 ft | 474 kts | 280° |
| 2026-05-05 15:58 | 56.00559 | -20.12667 | 40251 ft | 475 kts | 276° |
| 2026-05-05 15:58 | 56.00957 | -20.22837 | 40253 ft | 476 kts | 276° |
| 2026-05-05 15:59 | 56.01379 | -20.34625 | 40251 ft | 476 kts | 276° |
| 2026-05-05 15:59 | 56.01804 | -20.46427 | 40251 ft | 476 kts | 276° |
| 2026-05-05 16:00 | 56.02230 | -20.58233 | 40252 ft | 476 kts | 276° |
| 2026-05-05 16:00 | 56.02649 | -20.70035 | 40252 ft | 476 kts | 276° |
| 2026-05-05 16:01 | 56.03055 | -20.81846 | 40251 ft | 476 kts | 276° |
| 2026-05-05 16:01 | 56.03447 | -20.93581 | 40253 ft | 476 kts | 276° |
| 2026-05-05 16:02 | 56.03833 | -21.05475 | 40254 ft | 476 kts | 276° |
| 2026-05-05 16:02 | 56.04203 | -21.17227 | 40257 ft | 476 kts | 276° |
| 2026-05-05 16:03 | 56.04565 | -21.29050 | 40258 ft | 476 kts | 276° |
| 2026-05-05 16:03 | 56.04914 | -21.40876 | 40261 ft | 476 kts | 276° |
| 2026-05-05 16:04 | 56.05251 | -21.52693 | 40262 ft | 476 kts | 275° |
| 2026-05-05 16:04 | 56.05577 | -21.64512 | 40255 ft | 476 kts | 275° |
| 2026-05-05 16:05 | 56.05893 | -21.76347 | 40256 ft | 476 kts | 275° |
| 2026-05-05 16:05 | 56.06197 | -21.88181 | 40257 ft | 476 kts | 275° |
| 2026-05-05 16:06 | 56.06488 | -21.99945 | 40258 ft | 476 kts | 275° |
| 2026-05-05 16:06 | 56.06771 | -22.11801 | 40258 ft | 475 kts | 275° |
| 2026-05-05 16:07 | 56.07041 | -22.23624 | 40255 ft | 476 kts | 275° |
| 2026-05-05 16:07 | 56.07299 | -22.35443 | 40259 ft | 475 kts | 275° |
| 2026-05-05 16:08 | 56.07546 | -22.47257 | 40259 ft | 475 kts | 275° |
| 2026-05-05 16:08 | 56.07783 | -22.59100 | 40260 ft | 475 kts | 275° |
| 2026-05-05 16:09 | 56.08007 | -22.70921 | 40260 ft | 475 kts | 275° |
| 2026-05-05 16:09 | 56.08221 | -22.82761 | 40258 ft | 475 kts | 274° |
| 2026-05-05 16:10 | 56.08423 | -22.94580 | 40255 ft | 475 kts | 274° |
| 2026-05-05 16:10 | 56.08612 | -23.06330 | 40252 ft | 475 kts | 274° |
| 2026-05-05 16:11 | 56.08792 | -23.18148 | 40263 ft | 475 kts | 274° |
| 2026-05-05 16:12 | 56.09117 | -23.41810 | 40256 ft | 474 kts | 274° |
| 2026-05-05 16:13 | 56.09459 | -23.71296 | 40260 ft | 474 kts | 274° |
| 2026-05-05 16:13 | 56.09576 | -23.83124 | 40260 ft | 474 kts | 274° |
| 2026-05-05 16:14 | 56.09777 | -24.06750 | 40259 ft | 474 kts | 273° |
| 2026-05-05 16:15 | 56.09921 | -24.28398 | 40266 ft | 474 kts | 273° |
| 2026-05-05 16:16 | 56.10042 | -24.53939 | 40263 ft | 474 kts | 273° |
| 2026-05-05 16:17 | 56.10091 | -24.69679 | 40257 ft | 474 kts | 272° |
| 2026-05-05 16:18 | 56.10121 | -24.87387 | 40262 ft | 474 kts | 272° |
| 2026-05-05 16:19 | 56.10127 | -25.05114 | 40264 ft | 474 kts | 272° |
| 2026-05-05 16:19 | 56.10107 | -25.22831 | 40266 ft | 474 kts | 272° |
| 2026-05-05 16:20 | 56.10040 | -25.46458 | 40269 ft | 474 kts | 272° |
| 2026-05-05 16:22 | 56.09895 | -25.75918 | 40267 ft | 474 kts | 271° |
| 2026-05-05 16:23 | 56.09727 | -25.99580 | 40273 ft | 474 kts | 271° |
| 2026-05-05 16:23 | 56.09571 | -26.17312 | 40273 ft | 475 kts | 271° |
| 2026-05-05 16:24 | 56.09454 | -26.29145 | 40275 ft | 475 kts | 271° |
| 2026-05-05 16:25 | 56.09256 | -26.46870 | 40279 ft | 474 kts | 271° |
| 2026-05-05 16:25 | 56.09034 | -26.64522 | 40272 ft | 474 kts | 271° |
| 2026-05-05 16:26 | 56.08697 | -26.88135 | 40277 ft | 474 kts | 271° |
| 2026-05-05 16:27 | 56.08512 | -26.99944 | 40276 ft | 474 kts | 270° |
| 2026-05-05 16:27 | 56.08315 | -27.11746 | 40282 ft | 474 kts | 270° |
| 2026-05-05 16:28 | 56.08108 | -27.23552 | 40284 ft | 474 kts | 270° |
| 2026-05-05 16:28 | 56.07889 | -27.35321 | 40285 ft | 474 kts | 270° |
| 2026-05-05 16:29 | 56.07661 | -27.47037 | 40273 ft | 473 kts | 270° |
| 2026-05-05 16:29 | 56.07419 | -27.58832 | 40283 ft | 473 kts | 270° |
| 2026-05-05 16:30 | 56.07167 | -27.70608 | 40281 ft | 473 kts | 270° |
| 2026-05-05 16:30 | 56.06904 | -27.82366 | 40282 ft | 473 kts | 270° |
| 2026-05-05 16:31 | 56.06630 | -27.94132 | 40281 ft | 473 kts | 270° |
| 2026-05-05 16:31 | 56.06344 | -28.05885 | 40280 ft | 473 kts | 269° |
| 2026-05-05 16:32 | 56.06048 | -28.17642 | 40284 ft | 473 kts | 269° |
| 2026-05-05 16:32 | 56.05740 | -28.29407 | 40282 ft | 473 kts | 269° |
| 2026-05-05 16:33 | 56.05423 | -28.41075 | 40283 ft | 472 kts | 269° |
| 2026-05-05 16:33 | 56.05093 | -28.52818 | 40284 ft | 473 kts | 269° |
| 2026-05-05 16:34 | 56.04751 | -28.64558 | 40284 ft | 473 kts | 269° |
| 2026-05-05 16:34 | 56.04400 | -28.76294 | 40285 ft | 472 kts | 269° |
| 2026-05-05 16:35 | 56.04037 | -28.88028 | 40287 ft | 472 kts | 269° |
| 2026-05-05 16:35 | 56.03663 | -28.99768 | 40283 ft | 472 kts | 268° |
| 2026-05-05 16:36 | 56.03277 | -29.11501 | 40286 ft | 472 kts | 268° |
| 2026-05-05 16:36 | 56.02880 | -29.23241 | 40288 ft | 472 kts | 268° |
| 2026-05-05 16:37 | 56.02473 | -29.34959 | 40284 ft | 472 kts | 268° |
| 2026-05-05 16:37 | 56.02056 | -29.46608 | 40288 ft | 472 kts | 268° |
| 2026-05-05 16:38 | 56.01627 | -29.58319 | 40335 ft | 473 kts | 268° |
| 2026-05-05 16:38 | 56.01407 | -29.64195 | 40519 ft | 473 kts | 268° |
| 2026-05-05 16:38 | 56.01183 | -29.70077 | 40671 ft | 474 kts | 268° |
| 2026-05-05 16:39 | 56.00958 | -29.75949 | 40830 ft | 474 kts | 268° |
| 2026-05-05 16:39 | 56.00729 | -29.81833 | 41043 ft | 473 kts | 268° |
| 2026-05-05 16:39 | 56.00500 | -29.87678 | 41227 ft | 472 kts | 268° |
| 2026-05-05 16:39 | 56.00267 | -29.93543 | 41282 ft | 473 kts | 268° |
| 2026-05-05 16:40 | 56.00234 | -30.05258 | 41288 ft | 470 kts | 275° |
| 2026-05-05 16:40 | 56.00647 | -30.16911 | 41289 ft | 470 kts | 276° |
| 2026-05-05 16:41 | 56.01112 | -30.28498 | 41289 ft | 470 kts | 276° |
| 2026-05-05 16:41 | 56.01568 | -30.40139 | 41282 ft | 470 kts | 275° |
| 2026-05-05 16:42 | 56.02001 | -30.51801 | 41283 ft | 470 kts | 275° |
| 2026-05-05 16:42 | 56.02420 | -30.63472 | 41281 ft | 470 kts | 275° |
| 2026-05-05 16:43 | 56.02826 | -30.75132 | 41280 ft | 470 kts | 275° |
| 2026-05-05 16:43 | 56.03221 | -30.86795 | 41277 ft | 470 kts | 275° |
| 2026-05-05 16:44 | 56.03604 | -30.98378 | 41279 ft | 470 kts | 275° |
| 2026-05-05 16:44 | 56.03978 | -31.10055 | 41279 ft | 470 kts | 275° |
| 2026-05-05 16:45 | 56.04342 | -31.21746 | 41281 ft | 470 kts | 274° |
| 2026-05-05 16:45 | 56.04694 | -31.33433 | 41275 ft | 470 kts | 274° |
| 2026-05-05 16:46 | 56.05036 | -31.45119 | 41274 ft | 470 kts | 274° |
| 2026-05-05 16:46 | 56.05365 | -31.56754 | 41272 ft | 471 kts | 274° |
| 2026-05-05 16:47 | 56.05684 | -31.68469 | 41270 ft | 471 kts | 274° |
| 2026-05-05 16:47 | 56.05993 | -31.80185 | 41272 ft | 471 kts | 274° |
| 2026-05-05 16:48 | 56.06291 | -31.91913 | 41266 ft | 472 kts | 274° |
| 2026-05-05 16:48 | 56.06578 | -32.03642 | 41267 ft | 472 kts | 273° |
| 2026-05-05 16:49 | 56.06853 | -32.15335 | 41265 ft | 472 kts | 273° |
| 2026-05-05 16:49 | 56.07115 | -32.27109 | 41262 ft | 473 kts | 273° |
| 2026-05-05 16:50 | 56.07371 | -32.38890 | 41260 ft | 473 kts | 273° |
| 2026-05-05 16:50 | 56.07616 | -32.50681 | 41256 ft | 474 kts | 273° |
| 2026-05-05 16:51 | 56.07849 | -32.62481 | 41256 ft | 474 kts | 272° |
| 2026-05-05 16:51 | 56.08070 | -32.74298 | 41256 ft | 475 kts | 272° |
| 2026-05-05 16:52 | 56.08279 | -32.86055 | 41250 ft | 475 kts | 272° |
| 2026-05-05 16:52 | 56.08479 | -32.97900 | 41251 ft | 476 kts | 272° |
| 2026-05-05 16:53 | 56.08667 | -33.09747 | 41252 ft | 477 kts | 272° |
| 2026-05-05 16:53 | 56.08843 | -33.21622 | 41250 ft | 477 kts | 272° |
| 2026-05-05 16:54 | 56.09009 | -33.33510 | 41249 ft | 477 kts | 272° |
| 2026-05-05 16:54 | 56.09164 | -33.45412 | 41246 ft | 478 kts | 271° |
| 2026-05-05 16:55 | 56.09305 | -33.57229 | 41244 ft | 478 kts | 271° |
| 2026-05-05 16:55 | 56.09438 | -33.69196 | 41242 ft | 478 kts | 271° |
| 2026-05-05 16:56 | 56.09557 | -33.81024 | 41242 ft | 478 kts | 271° |
| 2026-05-05 16:56 | 56.09667 | -33.92939 | 41237 ft | 478 kts | 271° |
| 2026-05-05 16:57 | 56.09764 | -34.04830 | 41236 ft | 478 kts | 271° |
| 2026-05-05 16:57 | 56.09850 | -34.16741 | 41231 ft | 478 kts | 270° |
| 2026-05-05 16:58 | 56.09924 | -34.28644 | 41230 ft | 478 kts | 270° |
| 2026-05-05 16:58 | 56.09988 | -34.40565 | 41227 ft | 478 kts | 270° |
| 2026-05-05 16:59 | 56.10039 | -34.52512 | 41225 ft | 479 kts | 270° |
| 2026-05-05 16:59 | 56.10079 | -34.64381 | 41225 ft | 480 kts | 270° |
| 2026-05-05 17:00 | 56.10108 | -34.76356 | 41223 ft | 480 kts | 269° |
| 2026-05-05 17:00 | 56.10124 | -34.88342 | 41217 ft | 481 kts | 269° |
| 2026-05-05 17:01 | 56.10129 | -35.00330 | 41213 ft | 481 kts | 269° |
| 2026-05-05 17:01 | 56.10123 | -35.12351 | 41210 ft | 482 kts | 269° |
| 2026-05-05 17:02 | 56.10106 | -35.24279 | 41211 ft | 482 kts | 269° |
| 2026-05-05 17:02 | 56.10076 | -35.36292 | 41201 ft | 482 kts | 269° |
| 2026-05-05 17:03 | 56.10035 | -35.48332 | 41204 ft | 483 kts | 268° |
| 2026-05-05 17:03 | 56.09982 | -35.60368 | 41206 ft | 483 kts | 268° |
| 2026-05-05 17:04 | 56.09918 | -35.72400 | 41198 ft | 483 kts | 268° |
| 2026-05-05 17:04 | 56.09842 | -35.84377 | 41192 ft | 484 kts | 268° |
| 2026-05-05 17:05 | 56.09769 | -35.94495 | 41187 ft | 484 kts | 268° |
| 2026-05-05 17:05 | 56.09671 | -36.06544 | 41183 ft | 484 kts | 268° |
| 2026-05-05 17:06 | 56.09562 | -36.18556 | 41181 ft | 485 kts | 267° |
| 2026-05-05 17:06 | 56.09440 | -36.30643 | 41179 ft | 485 kts | 267° |
| 2026-05-05 17:07 | 56.09307 | -36.42703 | 41177 ft | 485 kts | 267° |
| 2026-05-05 17:07 | 56.09162 | -36.54794 | 41173 ft | 485 kts | 267° |
| 2026-05-05 17:08 | 56.09004 | -36.66891 | 41172 ft | 486 kts | 266° |
| 2026-05-05 17:08 | 56.08834 | -36.78970 | 41168 ft | 486 kts | 266° |
| 2026-05-05 17:09 | 56.08654 | -36.91044 | 41164 ft | 487 kts | 266° |
| 2026-05-05 17:09 | 56.08462 | -37.03162 | 41158 ft | 487 kts | 266° |
| 2026-05-05 17:10 | 56.08256 | -37.15307 | 41150 ft | 488 kts | 266° |
| 2026-05-05 17:10 | 56.08037 | -37.27468 | 41156 ft | 489 kts | 266° |
| 2026-05-05 17:11 | 56.07807 | -37.39638 | 41150 ft | 489 kts | 266° |
| 2026-05-05 17:11 | 56.07566 | -37.51817 | 41139 ft | 490 kts | 265° |
| 2026-05-05 17:12 | 56.07313 | -37.63945 | 41143 ft | 490 kts | 265° |
| 2026-05-05 17:12 | 56.07073 | -37.74936 | 41135 ft | 491 kts | 265° |
| 2026-05-05 17:13 | 56.06794 | -37.87160 | 41130 ft | 491 kts | 265° |
| 2026-05-05 17:13 | 56.06505 | -37.99393 | 41130 ft | 491 kts | 265° |
| 2026-05-05 17:14 | 56.06202 | -38.11593 | 41126 ft | 492 kts | 265° |
| 2026-05-05 17:14 | 56.05887 | -38.23834 | 41120 ft | 492 kts | 265° |
| 2026-05-05 17:15 | 56.05563 | -38.36027 | 41119 ft | 493 kts | 265° |
| 2026-05-05 17:15 | 56.05224 | -38.48267 | 41113 ft | 493 kts | 264° |
| 2026-05-05 17:16 | 56.04872 | -38.60529 | 41112 ft | 493 kts | 264° |
| 2026-05-05 17:16 | 56.04507 | -38.72790 | 41105 ft | 493 kts | 264° |
| 2026-05-05 17:17 | 56.04132 | -38.85051 | 41104 ft | 494 kts | 264° |
| 2026-05-05 17:17 | 56.03742 | -38.97333 | 41102 ft | 494 kts | 264° |
| 2026-05-05 17:18 | 56.03341 | -39.09598 | 41103 ft | 494 kts | 264° |
| 2026-05-05 17:18 | 56.02931 | -39.21798 | 41087 ft | 494 kts | 264° |
| 2026-05-05 17:19 | 56.02505 | -39.34066 | 41095 ft | 494 kts | 264° |
| 2026-05-05 17:19 | 56.02068 | -39.46324 | 41087 ft | 494 kts | 264° |
| 2026-05-05 17:20 | 56.01619 | -39.58576 | 41081 ft | 494 kts | 264° |
| 2026-05-05 17:20 | 56.01164 | -39.70660 | 41089 ft | 495 kts | 264° |
| 2026-05-05 17:21 | 56.00829 | -39.79350 | 41078 ft | 495 kts | 263° |
| 2026-05-05 17:22 | 56.00101 | -39.97757 | 41081 ft | 495 kts | 263° |
| 2026-05-05 17:22 | 55.99523 | -40.09997 | 41075 ft | 494 kts | 262° |
| 2026-05-05 17:23 | 55.98772 | -40.22112 | 41075 ft | 494 kts | 261° |
| 2026-05-05 17:23 | 55.98001 | -40.34298 | 41069 ft | 494 kts | 261° |
| 2026-05-05 17:24 | 55.97246 | -40.46495 | 41070 ft | 494 kts | 261° |
| 2026-05-05 17:24 | 55.96492 | -40.58699 | 41067 ft | 494 kts | 261° |
| 2026-05-05 17:25 | 55.95728 | -40.70903 | 41062 ft | 494 kts | 261° |
| 2026-05-05 17:25 | 55.94952 | -40.83086 | 41064 ft | 495 kts | 261° |
| 2026-05-05 17:26 | 55.94161 | -40.95287 | 41060 ft | 495 kts | 261° |
| 2026-05-05 17:26 | 55.93357 | -41.07496 | 41058 ft | 495 kts | 261° |
| 2026-05-05 17:27 | 55.92548 | -41.19607 | 41062 ft | 495 kts | 261° |
| 2026-05-05 17:27 | 55.91721 | -41.31792 | 41055 ft | 495 kts | 260° |
| 2026-05-05 17:28 | 55.90881 | -41.43982 | 41055 ft | 495 kts | 260° |
| 2026-05-05 17:28 | 55.90029 | -41.56168 | 41045 ft | 496 kts | 260° |
| 2026-05-05 17:29 | 55.89164 | -41.68370 | 41052 ft | 496 kts | 260° |
| 2026-05-05 17:29 | 55.88287 | -41.80567 | 41049 ft | 496 kts | 260° |
| 2026-05-05 17:30 | 55.87398 | -41.92752 | 41044 ft | 496 kts | 260° |
| 2026-05-05 17:30 | 55.86496 | -42.04947 | 41034 ft | 496 kts | 260° |
| 2026-05-05 17:31 | 55.85587 | -42.17068 | 41030 ft | 496 kts | 259° |
| 2026-05-05 17:31 | 55.84660 | -42.29260 | 41031 ft | 496 kts | 259° |
| 2026-05-05 17:32 | 55.83722 | -42.41435 | 41031 ft | 497 kts | 259° |
| 2026-05-05 17:32 | 55.82772 | -42.53598 | 41025 ft | 497 kts | 259° |
| 2026-05-05 17:33 | 55.81809 | -42.65774 | 41022 ft | 497 kts | 259° |
| 2026-05-05 17:33 | 55.80834 | -42.77940 | 41018 ft | 497 kts | 259° |
| 2026-05-05 17:34 | 55.79847 | -42.90104 | 41014 ft | 497 kts | 259° |
| 2026-05-05 17:34 | 55.78847 | -43.02276 | 41008 ft | 497 kts | 259° |
| 2026-05-05 17:35 | 55.77842 | -43.14351 | 41006 ft | 497 kts | 259° |
| 2026-05-05 17:35 | 55.76819 | -43.26496 | 41003 ft | 497 kts | 259° |
| 2026-05-05 17:36 | 55.75783 | -43.38645 | 40993 ft | 497 kts | 258° |
| 2026-05-05 17:36 | 55.74737 | -43.50776 | 40991 ft | 497 kts | 258° |
| 2026-05-05 17:37 | 55.73676 | -43.62917 | 40994 ft | 498 kts | 258° |
| 2026-05-05 17:37 | 55.72605 | -43.75038 | 40983 ft | 498 kts | 258° |
| 2026-05-05 17:38 | 55.71519 | -43.87194 | 40975 ft | 498 kts | 258° |
| 2026-05-05 17:38 | 55.70421 | -43.99331 | 40974 ft | 498 kts | 258° |
| 2026-05-05 17:39 | 55.69319 | -44.11381 | 40968 ft | 498 kts | 258° |
| 2026-05-05 17:39 | 55.68197 | -44.23509 | 40962 ft | 498 kts | 258° |
| 2026-05-05 17:40 | 55.67064 | -44.35625 | 40960 ft | 499 kts | 258° |
| 2026-05-05 17:40 | 55.65917 | -44.47750 | 40951 ft | 499 kts | 258° |
| 2026-05-05 17:41 | 55.64759 | -44.59858 | 40945 ft | 499 kts | 258° |
| 2026-05-05 17:41 | 55.63589 | -44.71963 | 40941 ft | 499 kts | 257° |
| 2026-05-05 17:42 | 55.62407 | -44.84064 | 40938 ft | 499 kts | 257° |
| 2026-05-05 17:42 | 55.61211 | -44.96178 | 40932 ft | 499 kts | 257° |
| 2026-05-05 17:43 | 55.60010 | -45.08214 | 40923 ft | 499 kts | 257° |
| 2026-05-05 17:43 | 55.58790 | -45.20305 | 40919 ft | 499 kts | 257° |
| 2026-05-05 17:44 | 55.57558 | -45.32403 | 40910 ft | 500 kts | 257° |
| 2026-05-05 17:44 | 55.56314 | -45.44488 | 40905 ft | 500 kts | 257° |
| 2026-05-05 17:45 | 55.55057 | -45.56575 | 40898 ft | 500 kts | 257° |
| 2026-05-05 17:45 | 55.53789 | -45.68645 | 40894 ft | 500 kts | 257° |
| 2026-05-05 17:46 | 55.52511 | -45.80696 | 40887 ft | 500 kts | 256° |
| 2026-05-05 17:46 | 55.51219 | -45.92761 | 40881 ft | 500 kts | 256° |
| 2026-05-05 17:47 | 55.49924 | -46.04731 | 40878 ft | 500 kts | 256° |
| 2026-05-05 17:47 | 55.48608 | -46.16777 | 40869 ft | 500 kts | 256° |
| 2026-05-05 17:48 | 55.47281 | -46.28808 | 40860 ft | 500 kts | 256° |
| 2026-05-05 17:48 | 55.45943 | -46.40831 | 40858 ft | 500 kts | 256° |
| 2026-05-05 17:49 | 55.44591 | -46.52864 | 40839 ft | 500 kts | 256° |
| 2026-05-05 17:49 | 55.43229 | -46.64874 | 40842 ft | 500 kts | 256° |
| 2026-05-05 17:50 | 55.41863 | -46.76788 | 40833 ft | 500 kts | 256° |
| 2026-05-05 17:50 | 55.40478 | -46.88778 | 40833 ft | 500 kts | 256° |
| 2026-05-05 17:51 | 55.39081 | -47.00749 | 40824 ft | 500 kts | 255° |
| 2026-05-05 17:51 | 55.37671 | -47.12727 | 40818 ft | 500 kts | 255° |
| 2026-05-05 17:52 | 55.36253 | -47.24684 | 40808 ft | 500 kts | 255° |
| 2026-05-05 17:52 | 55.35062 | -47.34631 | 40804 ft | 499 kts | 255° |
| 2026-05-05 17:53 | 55.33619 | -47.46570 | 40799 ft | 499 kts | 255° |
| 2026-05-05 17:53 | 55.32169 | -47.58496 | 40789 ft | 500 kts | 255° |
| 2026-05-05 17:54 | 55.30703 | -47.70426 | 40787 ft | 500 kts | 255° |
| 2026-05-05 17:54 | 55.29225 | -47.82358 | 40783 ft | 499 kts | 255° |
| 2026-05-05 17:55 | 55.27739 | -47.94246 | 40775 ft | 499 kts | 255° |
| 2026-05-05 17:55 | 55.26251 | -48.06062 | 40771 ft | 499 kts | 255° |
| 2026-05-05 17:56 | 55.24742 | -48.17935 | 40762 ft | 499 kts | 255° |
| 2026-05-05 17:56 | 55.23223 | -48.29791 | 40756 ft | 499 kts | 255° |
| 2026-05-05 17:57 | 55.21691 | -48.41649 | 40751 ft | 499 kts | 255° |
| 2026-05-05 17:57 | 55.20150 | -48.53485 | 40745 ft | 499 kts | 255° |
| 2026-05-05 17:58 | 55.18595 | -48.65317 | 40742 ft | 499 kts | 254° |
| 2026-05-05 17:58 | 55.17026 | -48.77157 | 40736 ft | 499 kts | 254° |
| 2026-05-05 17:59 | 55.15451 | -48.88964 | 40728 ft | 498 kts | 254° |
| 2026-05-05 17:59 | 55.13863 | -49.00756 | 40723 ft | 498 kts | 254° |
| 2026-05-05 18:00 | 55.12264 | -49.12555 | 40716 ft | 498 kts | 254° |
| 2026-05-05 18:00 | 55.10663 | -49.24261 | 40709 ft | 498 kts | 254° |
| 2026-05-05 18:01 | 55.09041 | -49.36035 | 40705 ft | 498 kts | 254° |
| 2026-05-05 18:01 | 55.07409 | -49.47797 | 40700 ft | 498 kts | 253° |
| 2026-05-05 18:02 | 55.05764 | -49.59545 | 40682 ft | 498 kts | 253° |
| 2026-05-05 18:02 | 55.04108 | -49.71283 | 40691 ft | 498 kts | 253° |
| 2026-05-05 18:03 | 55.02441 | -49.83012 | 40686 ft | 498 kts | 253° |
| 2026-05-05 18:03 | 55.00766 | -49.94724 | 40671 ft | 498 kts | 253° |
| 2026-05-05 18:04 | 54.98562 | -50.06009 | 40672 ft | 494 kts | 245° |
| 2026-05-05 18:04 | 54.95926 | -50.17075 | 40667 ft | 494 kts | 244° |
| 2026-05-05 18:05 | 54.93231 | -50.28077 | 40661 ft | 494 kts | 244° |
| 2026-05-05 18:05 | 54.90535 | -50.39059 | 40659 ft | 494 kts | 244° |
| 2026-05-05 18:06 | 54.87840 | -50.50034 | 40658 ft | 494 kts | 244° |
| 2026-05-05 18:06 | 54.85135 | -50.61000 | 40652 ft | 494 kts | 244° |
| 2026-05-05 18:07 | 54.82441 | -50.71878 | 40648 ft | 493 kts | 244° |
| 2026-05-05 18:07 | 54.79722 | -50.82805 | 40643 ft | 493 kts | 244° |
| 2026-05-05 18:08 | 54.76990 | -50.93721 | 40639 ft | 493 kts | 244° |
| 2026-05-05 18:08 | 54.74256 | -51.04593 | 40629 ft | 493 kts | 244° |
| 2026-05-05 18:09 | 54.71508 | -51.15474 | 40630 ft | 493 kts | 244° |
| 2026-05-05 18:09 | 54.68771 | -51.26260 | 40625 ft | 493 kts | 244° |
| 2026-05-05 18:10 | 54.66003 | -51.37107 | 40620 ft | 493 kts | 244° |
| 2026-05-05 18:10 | 54.63229 | -51.47924 | 40615 ft | 493 kts | 244° |
| 2026-05-05 18:11 | 54.60441 | -51.58741 | 40614 ft | 492 kts | 244° |
| 2026-05-05 18:11 | 54.57644 | -51.69549 | 40610 ft | 493 kts | 244° |
| 2026-05-05 18:12 | 54.54862 | -51.80246 | 40602 ft | 493 kts | 244° |
| 2026-05-05 18:12 | 54.52043 | -51.91029 | 40600 ft | 492 kts | 244° |
| 2026-05-05 18:13 | 54.49223 | -52.01768 | 40599 ft | 492 kts | 244° |
| 2026-05-05 18:13 | 54.46395 | -52.12492 | 40595 ft | 492 kts | 244° |
| 2026-05-05 18:14 | 54.43576 | -52.23129 | 40591 ft | 492 kts | 244° |
| 2026-05-05 18:14 | 54.40712 | -52.33881 | 40586 ft | 492 kts | 244° |
| 2026-05-05 18:15 | 54.37876 | -52.44474 | 40586 ft | 491 kts | 244° |
| 2026-05-05 18:15 | 54.35015 | -52.55111 | 40583 ft | 491 kts | 244° |
| 2026-05-05 18:16 | 54.32143 | -52.65747 | 40580 ft | 491 kts | 244° |
| 2026-05-05 18:16 | 54.29262 | -52.76363 | 40580 ft | 491 kts | 244° |
| 2026-05-05 18:17 | 54.26372 | -52.86964 | 40576 ft | 491 kts | 244° |
| 2026-05-05 18:17 | 54.23472 | -52.97554 | 40579 ft | 491 kts | 244° |
| 2026-05-05 18:18 | 54.20580 | -53.08069 | 40572 ft | 491 kts | 243° |
| 2026-05-05 18:18 | 54.17657 | -53.18645 | 40568 ft | 492 kts | 243° |
| 2026-05-05 18:19 | 54.14728 | -53.29190 | 40570 ft | 492 kts | 243° |
| 2026-05-05 18:19 | 54.11793 | -53.39710 | 40567 ft | 492 kts | 243° |
| 2026-05-05 18:20 | 54.08842 | -53.50243 | 40564 ft | 492 kts | 243° |
| 2026-05-05 18:20 | 54.05884 | -53.60754 | 40566 ft | 492 kts | 243° |
| 2026-05-05 18:21 | 54.02932 | -53.71192 | 40563 ft | 492 kts | 243° |
| 2026-05-05 18:21 | 53.99955 | -53.81674 | 40564 ft | 492 kts | 243° |
| 2026-05-05 18:22 | 53.96964 | -53.92160 | 40565 ft | 492 kts | 243° |
| 2026-05-05 18:22 | 53.93967 | -54.02617 | 40565 ft | 492 kts | 243° |
| 2026-05-05 18:23 | 53.90962 | -54.13057 | 40565 ft | 492 kts | 243° |
| 2026-05-05 18:23 | 53.87951 | -54.23470 | 40563 ft | 492 kts | 243° |
| 2026-05-05 18:24 | 53.84934 | -54.33857 | 40565 ft | 491 kts | 243° |
| 2026-05-05 18:24 | 53.81909 | -54.44228 | 40563 ft | 491 kts | 243° |
| 2026-05-05 18:25 | 53.78880 | -54.54567 | 40563 ft | 490 kts | 243° |
| 2026-05-05 18:25 | 53.75839 | -54.64900 | 40561 ft | 490 kts | 243° |
| 2026-05-05 18:26 | 53.72815 | -54.75133 | 40562 ft | 490 kts | 243° |
| 2026-05-05 18:26 | 53.69769 | -54.85393 | 40561 ft | 489 kts | 243° |
| 2026-05-05 18:27 | 53.66712 | -54.95649 | 40565 ft | 489 kts | 243° |
| 2026-05-05 18:27 | 53.63653 | -55.05866 | 40562 ft | 488 kts | 243° |
| 2026-05-05 18:28 | 53.59046 | -55.21168 | 40559 ft | 488 kts | 243° |
| 2026-05-05 18:28 | 53.55970 | -55.31333 | 40561 ft | 487 kts | 243° |
| 2026-05-05 18:29 | 53.52879 | -55.41504 | 40560 ft | 487 kts | 243° |
| 2026-05-05 18:29 | 53.49785 | -55.51641 | 40557 ft | 487 kts | 243° |
| 2026-05-05 18:30 | 53.46706 | -55.61689 | 40551 ft | 487 kts | 242° |
| 2026-05-05 18:30 | 53.43599 | -55.71781 | 40542 ft | 487 kts | 242° |
| 2026-05-05 18:31 | 53.40481 | -55.81870 | 40537 ft | 487 kts | 242° |
| 2026-05-05 18:31 | 53.37352 | -55.91950 | 40534 ft | 487 kts | 242° |
| 2026-05-05 18:32 | 53.34219 | -56.02003 | 40527 ft | 487 kts | 242° |
| 2026-05-05 18:32 | 53.31075 | -56.12047 | 40521 ft | 486 kts | 242° |
| 2026-05-05 18:33 | 53.27929 | -56.22056 | 40521 ft | 485 kts | 242° |
| 2026-05-05 18:33 | 53.24802 | -56.31968 | 40519 ft | 484 kts | 242° |
| 2026-05-05 18:34 | 53.21656 | -56.41889 | 40516 ft | 483 kts | 242° |
| 2026-05-05 18:34 | 53.18507 | -56.51790 | 40518 ft | 482 kts | 242° |
| 2026-05-05 18:35 | 53.15358 | -56.61653 | 40518 ft | 481 kts | 242° |
| 2026-05-05 18:35 | 53.12208 | -56.71477 | 40520 ft | 480 kts | 242° |
| 2026-05-05 18:36 | 53.09058 | -56.81260 | 40523 ft | 479 kts | 242° |
| 2026-05-05 18:36 | 53.05909 | -56.91026 | 40535 ft | 478 kts | 242° |
| 2026-05-05 18:37 | 53.02780 | -57.00694 | 40541 ft | 478 kts | 242° |
| 2026-05-05 18:37 | 52.99622 | -57.10412 | 40546 ft | 478 kts | 242° |
| 2026-05-05 18:38 | 52.96457 | -57.20114 | 40547 ft | 478 kts | 242° |
| 2026-05-05 18:38 | 52.93285 | -57.29800 | 40553 ft | 477 kts | 242° |
| 2026-05-05 18:39 | 52.90108 | -57.39458 | 40557 ft | 477 kts | 242° |
| 2026-05-05 18:39 | 52.86922 | -57.49106 | 40560 ft | 477 kts | 242° |
| 2026-05-05 18:40 | 52.83753 | -57.58668 | 40566 ft | 477 kts | 242° |
| 2026-05-05 18:40 | 52.80552 | -57.68289 | 40568 ft | 477 kts | 242° |
| 2026-05-05 18:41 | 52.77345 | -57.77890 | 40576 ft | 477 kts | 242° |
| 2026-05-05 18:41 | 52.74678 | -57.85849 | 40574 ft | 477 kts | 242° |
| 2026-05-05 18:42 | 52.71454 | -57.95432 | 40583 ft | 477 kts | 242° |
| 2026-05-05 18:42 | 52.68229 | -58.04979 | 40585 ft | 477 kts | 242° |
| 2026-05-05 18:43 | 52.64996 | -58.14517 | 40589 ft | 477 kts | 241° |
| 2026-05-05 18:43 | 52.61757 | -58.24033 | 40590 ft | 477 kts | 241° |
| 2026-05-05 18:44 | 52.58507 | -58.33548 | 40594 ft | 477 kts | 241° |
| 2026-05-05 18:44 | 52.56140 | -58.40452 | 40599 ft | 477 kts | 241° |
| 2026-05-05 18:45 | 52.52880 | -58.49931 | 40596 ft | 477 kts | 241° |
| 2026-05-05 18:45 | 52.49610 | -58.59400 | 40598 ft | 476 kts | 241° |
| 2026-05-05 18:46 | 52.47070 | -58.66734 | 40603 ft | 476 kts | 241° |
| 2026-05-05 18:46 | 52.43793 | -58.76165 | 40601 ft | 476 kts | 241° |
| 2026-05-05 18:47 | 52.40508 | -58.85583 | 40607 ft | 475 kts | 241° |
| 2026-05-05 18:47 | 52.37219 | -58.94975 | 40605 ft | 475 kts | 241° |
| 2026-05-05 18:48 | 52.33968 | -59.04225 | 40608 ft | 475 kts | 241° |
| 2026-05-05 18:48 | 52.30688 | -59.13522 | 40606 ft | 475 kts | 241° |
| 2026-05-05 18:49 | 52.27371 | -59.22870 | 40607 ft | 475 kts | 241° |
| 2026-05-05 18:49 | 52.24057 | -59.32202 | 40603 ft | 475 kts | 241° |
| 2026-05-05 18:50 | 52.20738 | -59.41517 | 40601 ft | 474 kts | 240° |
| 2026-05-05 18:50 | 52.17411 | -59.50813 | 40598 ft | 474 kts | 240° |
| 2026-05-05 18:51 | 52.14078 | -59.60087 | 40600 ft | 474 kts | 240° |
| 2026-05-05 18:51 | 52.10761 | -59.69280 | 40598 ft | 474 kts | 240° |
| 2026-05-05 18:52 | 52.07419 | -59.78514 | 40600 ft | 474 kts | 240° |
| 2026-05-05 18:52 | 52.04068 | -59.87736 | 40597 ft | 473 kts | 240° |
| 2026-05-05 18:53 | 52.00718 | -59.96924 | 40596 ft | 473 kts | 240° |
| 2026-05-05 18:53 | 51.97357 | -60.06106 | 40593 ft | 473 kts | 240° |
| 2026-05-05 18:54 | 51.93996 | -60.15255 | 40597 ft | 473 kts | 240° |
| 2026-05-05 18:54 | 51.90621 | -60.24411 | 40602 ft | 473 kts | 240° |
| 2026-05-05 18:55 | 51.87256 | -60.33506 | 40602 ft | 472 kts | 240° |
| 2026-05-05 18:55 | 51.83872 | -60.42614 | 40602 ft | 472 kts | 240° |
| 2026-05-05 18:56 | 51.80475 | -60.51728 | 40603 ft | 472 kts | 240° |
| 2026-05-05 18:56 | 51.77078 | -60.60819 | 40603 ft | 472 kts | 239° |
| 2026-05-05 18:57 | 51.73674 | -60.69892 | 40608 ft | 472 kts | 239° |
| 2026-05-05 18:57 | 51.70265 | -60.78943 | 40611 ft | 472 kts | 239° |
| 2026-05-05 18:58 | 51.66870 | -60.87925 | 40612 ft | 472 kts | 239° |
| 2026-05-05 18:58 | 51.63444 | -60.96958 | 40613 ft | 473 kts | 239° |
| 2026-05-05 18:59 | 51.60007 | -61.05987 | 40624 ft | 473 kts | 239° |
| 2026-05-05 18:59 | 51.56560 | -61.15012 | 40613 ft | 473 kts | 239° |
| 2026-05-05 19:00 | 51.53108 | -61.24017 | 40626 ft | 473 kts | 239° |
| 2026-05-05 19:00 | 51.49644 | -61.33020 | 40628 ft | 473 kts | 239° |
| 2026-05-05 19:01 | 51.46209 | -61.41919 | 40617 ft | 473 kts | 239° |
| 2026-05-05 19:01 | 51.42742 | -61.50867 | 40627 ft | 472 kts | 239° |
| 2026-05-05 19:02 | 51.39280 | -61.59776 | 40631 ft | 471 kts | 239° |
| 2026-05-05 19:02 | 51.35814 | -61.68661 | 40629 ft | 469 kts | 239° |
| 2026-05-05 19:03 | 51.32357 | -61.77493 | 40630 ft | 468 kts | 239° |
| 2026-05-05 19:03 | 51.28894 | -61.86310 | 40628 ft | 468 kts | 239° |
| 2026-05-05 19:04 | 51.25423 | -61.95117 | 40630 ft | 467 kts | 239° |
| 2026-05-05 19:04 | 51.21956 | -62.03884 | 40636 ft | 467 kts | 239° |
| 2026-05-05 19:05 | 51.18487 | -62.12626 | 40638 ft | 466 kts | 238° |
| 2026-05-05 19:05 | 51.15016 | -62.21345 | 40639 ft | 466 kts | 238° |
| 2026-05-05 19:06 | 51.11539 | -62.30049 | 40642 ft | 465 kts | 238° |
| 2026-05-05 19:06 | 51.08070 | -62.38704 | 40646 ft | 464 kts | 238° |
| 2026-05-05 19:07 | 51.04595 | -62.47345 | 40647 ft | 462 kts | 238° |
| 2026-05-05 19:07 | 51.01131 | -62.55929 | 40647 ft | 461 kts | 238° |
| 2026-05-05 19:08 | 50.97694 | -62.64418 | 40652 ft | 459 kts | 238° |
| 2026-05-05 19:08 | 50.94236 | -62.72932 | 40648 ft | 459 kts | 238° |
| 2026-05-05 19:09 | 50.90781 | -62.81412 | 40652 ft | 458 kts | 238° |
| 2026-05-05 19:09 | 50.87323 | -62.89874 | 40650 ft | 457 kts | 238° |
| 2026-05-05 19:10 | 50.83867 | -62.98298 | 40653 ft | 456 kts | 238° |
| 2026-05-05 19:10 | 50.80413 | -63.06692 | 40651 ft | 455 kts | 238° |
| 2026-05-05 19:11 | 50.76953 | -63.15074 | 40653 ft | 455 kts | 237° |
| 2026-05-05 19:11 | 50.73487 | -63.23444 | 40651 ft | 455 kts | 237° |
| 2026-05-05 19:12 | 50.70017 | -63.31798 | 40649 ft | 455 kts | 237° |
| 2026-05-05 19:12 | 50.66544 | -63.40130 | 40655 ft | 455 kts | 237° |
| 2026-05-05 19:13 | 50.63065 | -63.48453 | 40646 ft | 454 kts | 237° |
| 2026-05-05 19:13 | 50.59575 | -63.56772 | 40647 ft | 454 kts | 237° |
| 2026-05-05 19:14 | 50.56108 | -63.65011 | 40647 ft | 454 kts | 237° |
| 2026-05-05 19:14 | 50.52616 | -63.73283 | 40644 ft | 454 kts | 237° |
| 2026-05-05 19:15 | 50.49113 | -63.81554 | 40642 ft | 454 kts | 237° |
| 2026-05-05 19:15 | 50.45613 | -63.89793 | 40641 ft | 453 kts | 237° |
| 2026-05-05 19:16 | 50.42101 | -63.98037 | 40638 ft | 453 kts | 237° |
| 2026-05-05 19:16 | 50.38615 | -64.06193 | 40633 ft | 453 kts | 237° |
| 2026-05-05 19:17 | 50.35101 | -64.14389 | 40635 ft | 453 kts | 237° |
| 2026-05-05 19:17 | 50.31581 | -64.22573 | 40631 ft | 453 kts | 236° |
| 2026-05-05 19:18 | 50.28056 | -64.30743 | 40627 ft | 453 kts | 236° |
| 2026-05-05 19:18 | 50.24530 | -64.38891 | 40625 ft | 453 kts | 236° |
| 2026-05-05 19:19 | 50.20994 | -64.47037 | 40624 ft | 453 kts | 236° |
| 2026-05-05 19:19 | 50.17479 | -64.55108 | 40620 ft | 453 kts | 236° |
| 2026-05-05 19:20 | 50.13930 | -64.63231 | 40616 ft | 453 kts | 236° |
| 2026-05-05 19:20 | 50.10380 | -64.71335 | 40611 ft | 453 kts | 236° |
| 2026-05-05 19:21 | 50.06821 | -64.79432 | 40610 ft | 453 kts | 236° |
| 2026-05-05 19:21 | 50.03262 | -64.87506 | 40607 ft | 453 kts | 236° |
| 2026-05-05 19:22 | 49.99694 | -64.95575 | 40602 ft | 452 kts | 236° |
| 2026-05-05 19:22 | 49.96137 | -65.03595 | 40597 ft | 452 kts | 236° |
| 2026-05-05 19:23 | 49.92563 | -65.11628 | 40597 ft | 452 kts | 235° |
| 2026-05-05 19:23 | 49.88981 | -65.19653 | 40589 ft | 452 kts | 235° |
| 2026-05-05 19:24 | 49.85520 | -65.27387 | 40586 ft | 452 kts | 235° |
| 2026-05-05 19:24 | 49.81926 | -65.35392 | 40585 ft | 452 kts | 235° |
| 2026-05-05 19:25 | 49.78332 | -65.43376 | 40582 ft | 452 kts | 235° |
| 2026-05-05 19:25 | 49.74723 | -65.51365 | 40577 ft | 452 kts | 235° |
| 2026-05-05 19:26 | 49.71120 | -65.59319 | 40576 ft | 452 kts | 235° |
| 2026-05-05 19:26 | 49.67684 | -65.66883 | 40573 ft | 452 kts | 235° |
| 2026-05-05 19:27 | 49.64069 | -65.74817 | 40571 ft | 452 kts | 235° |
| 2026-05-05 19:27 | 49.60470 | -65.82692 | 40567 ft | 451 kts | 235° |
| 2026-05-05 19:28 | 49.56847 | -65.90597 | 40562 ft | 451 kts | 235° |
| 2026-05-05 19:28 | 49.53229 | -65.98467 | 40561 ft | 451 kts | 235° |
| 2026-05-05 19:29 | 49.50207 | -66.05022 | 40554 ft | 450 kts | 235° |
| 2026-05-05 19:29 | 49.46579 | -66.12871 | 40545 ft | 450 kts | 235° |
| 2026-05-05 19:30 | 49.42945 | -66.20712 | 40549 ft | 450 kts | 235° |
| 2026-05-05 19:30 | 49.39314 | -66.28521 | 40546 ft | 449 kts | 235° |
| 2026-05-05 19:31 | 49.35675 | -66.36326 | 40543 ft | 449 kts | 235° |
| 2026-05-05 19:31 | 49.32036 | -66.44106 | 40541 ft | 449 kts | 235° |
| 2026-05-05 19:32 | 49.28412 | -66.51833 | 40535 ft | 448 kts | 234° |
| 2026-05-05 19:32 | 49.24770 | -66.59576 | 40533 ft | 447 kts | 234° |
| 2026-05-05 19:33 | 49.21130 | -66.67293 | 40531 ft | 447 kts | 234° |
| 2026-05-05 19:33 | 49.17493 | -66.74981 | 40532 ft | 446 kts | 234° |
| 2026-05-05 19:34 | 49.13855 | -66.82647 | 40535 ft | 445 kts | 234° |
| 2026-05-05 19:35 | 49.08397 | -66.94110 | 40536 ft | 445 kts | 234° |
| 2026-05-05 19:35 | 49.04747 | -67.01750 | 40537 ft | 444 kts | 234° |
| 2026-05-05 19:36 | 49.01107 | -67.09345 | 40546 ft | 444 kts | 234° |
| 2026-05-05 19:36 | 48.97461 | -67.16931 | 40548 ft | 444 kts | 234° |
| 2026-05-05 19:37 | 48.93836 | -67.24455 | 40551 ft | 444 kts | 234° |
| 2026-05-05 19:37 | 48.90184 | -67.32011 | 40554 ft | 443 kts | 234° |
| 2026-05-05 19:38 | 48.86525 | -67.39561 | 40548 ft | 443 kts | 234° |
| 2026-05-05 19:38 | 48.82867 | -67.47087 | 40550 ft | 443 kts | 234° |
| 2026-05-05 19:39 | 48.79203 | -67.54605 | 40554 ft | 443 kts | 234° |
| 2026-05-05 19:39 | 48.75529 | -67.62121 | 40551 ft | 443 kts | 234° |
| 2026-05-05 19:40 | 48.71929 | -67.69466 | 40541 ft | 443 kts | 234° |
| 2026-05-05 19:40 | 48.69577 | -67.74256 | 40544 ft | 443 kts | 234° |
| 2026-05-05 19:41 | 48.67921 | -67.77623 | 40539 ft | 443 kts | 234° |
| 2026-05-05 19:41 | 48.64877 | -67.83801 | 40538 ft | 443 kts | 234° |
| 2026-05-05 19:42 | 48.61207 | -67.91228 | 40537 ft | 444 kts | 234° |
| 2026-05-05 19:42 | 48.57489 | -67.98733 | 40531 ft | 444 kts | 234° |
| 2026-05-05 19:43 | 48.53804 | -68.06150 | 40524 ft | 444 kts | 234° |
| 2026-05-05 19:43 | 48.50094 | -68.13598 | 40526 ft | 444 kts | 234° |
| 2026-05-05 19:44 | 48.46376 | -68.21041 | 40528 ft | 444 kts | 234° |
| 2026-05-05 19:44 | 48.42652 | -68.28475 | 40549 ft | 444 kts | 234° |
| 2026-05-05 19:45 | 48.38926 | -68.35892 | 40553 ft | 444 kts | 234° |
| 2026-05-05 19:45 | 48.35222 | -68.43246 | 40541 ft | 444 kts | 234° |
| 2026-05-05 19:46 | 48.31492 | -68.50632 | 40552 ft | 444 kts | 234° |
| 2026-05-05 19:46 | 48.27756 | -68.58009 | 40556 ft | 443 kts | 234° |
| 2026-05-05 19:47 | 48.24020 | -68.65366 | 40551 ft | 443 kts | 234° |
| 2026-05-05 19:47 | 48.20284 | -68.72703 | 40574 ft | 443 kts | 234° |
| 2026-05-05 19:48 | 48.16540 | -68.80036 | 40562 ft | 442 kts | 234° |
| 2026-05-05 19:48 | 48.12771 | -68.87339 | 40573 ft | 442 kts | 233° |
| 2026-05-05 19:49 | 48.09047 | -68.94582 | 40556 ft | 442 kts | 234° |
| 2026-05-05 19:49 | 48.05315 | -69.01880 | 40559 ft | 441 kts | 234° |
| 2026-05-05 19:50 | 48.01579 | -69.09143 | 40578 ft | 441 kts | 234° |
| 2026-05-05 19:50 | 47.97827 | -69.16397 | 40578 ft | 441 kts | 233° |
| 2026-05-05 19:51 | 47.94076 | -69.23626 | 40568 ft | 440 kts | 233° |
| 2026-05-05 19:51 | 47.90318 | -69.30850 | 40565 ft | 440 kts | 233° |
| 2026-05-05 19:52 | 47.86564 | -69.38046 | 40581 ft | 439 kts | 233° |
| 2026-05-05 19:52 | 47.82832 | -69.45182 | 40558 ft | 439 kts | 233° |
| 2026-05-05 19:53 | 47.79074 | -69.52349 | 40577 ft | 438 kts | 233° |
| 2026-05-05 19:53 | 47.75973 | -69.58248 | 40573 ft | 438 kts | 233° |
| 2026-05-05 19:54 | 47.72584 | -69.64567 | 40578 ft | 437 kts | 232° |
| 2026-05-05 19:54 | 47.68708 | -69.71533 | 40577 ft | 437 kts | 232° |
| 2026-05-05 19:55 | 47.64849 | -69.78446 | 40576 ft | 437 kts | 232° |
| 2026-05-05 19:55 | 47.61162 | -69.85074 | 40576 ft | 437 kts | 232° |
| 2026-05-05 19:56 | 47.57296 | -69.92027 | 40574 ft | 436 kts | 232° |
| 2026-05-05 19:56 | 47.53435 | -69.98956 | 40576 ft | 436 kts | 232° |
| 2026-05-05 19:57 | 47.49567 | -70.05879 | 40576 ft | 436 kts | 232° |
| 2026-05-05 19:57 | 47.45723 | -70.12741 | 40578 ft | 435 kts | 232° |
| 2026-05-05 19:58 | 47.41862 | -70.19621 | 40584 ft | 434 kts | 232° |
| 2026-05-05 19:58 | 47.37987 | -70.26463 | 40587 ft | 433 kts | 232° |
| 2026-05-05 19:59 | 47.34114 | -70.33272 | 40589 ft | 433 kts | 232° |
| 2026-05-05 19:59 | 47.30269 | -70.40023 | 40594 ft | 432 kts | 232° |
| 2026-05-05 20:00 | 47.26475 | -70.46676 | 40597 ft | 432 kts | 232° |
| 2026-05-05 20:00 | 47.22601 | -70.53453 | 40604 ft | 432 kts | 232° |
| 2026-05-05 20:01 | 47.18734 | -70.60200 | 40605 ft | 432 kts | 232° |
| 2026-05-05 20:01 | 47.15000 | -70.66700 | 40605 ft | 432 kts | 232° |
| 2026-05-05 20:02 | 47.11126 | -70.73426 | 40604 ft | 432 kts | 232° |
| 2026-05-05 20:02 | 47.07249 | -70.80141 | 40608 ft | 432 kts | 232° |
| 2026-05-05 20:03 | 47.03355 | -70.86863 | 40611 ft | 432 kts | 232° |
| 2026-05-05 20:03 | 46.99460 | -70.93546 | 40610 ft | 431 kts | 232° |
| 2026-05-05 20:04 | 46.95585 | -71.00172 | 40613 ft | 431 kts | 232° |
| 2026-05-05 20:04 | 46.91756 | -71.06706 | 40605 ft | 431 kts | 232° |
| 2026-05-05 20:05 | 46.87846 | -71.13365 | 40602 ft | 431 kts | 232° |
| 2026-05-05 20:05 | 46.83927 | -71.20026 | 40594 ft | 431 kts | 232° |
| 2026-05-05 20:06 | 46.80004 | -71.26656 | 40587 ft | 432 kts | 230° |
| 2026-05-05 20:06 | 46.75678 | -71.32750 | 40592 ft | 433 kts | 225° |
| 2026-05-05 20:07 | 46.71219 | -71.38602 | 40588 ft | 433 kts | 225° |
| 2026-05-05 20:07 | 46.66718 | -71.44439 | 40593 ft | 433 kts | 225° |
| 2026-05-05 20:08 | 46.62221 | -71.50274 | 40597 ft | 433 kts | 225° |
| 2026-05-05 20:08 | 46.57734 | -71.56097 | 40603 ft | 432 kts | 225° |
| 2026-05-05 20:09 | 46.53245 | -71.61915 | 40609 ft | 432 kts | 225° |
| 2026-05-05 20:09 | 46.48751 | -71.67726 | 40614 ft | 432 kts | 225° |
| 2026-05-05 20:10 | 46.44345 | -71.73409 | 40614 ft | 432 kts | 225° |
| 2026-05-05 20:10 | 46.39891 | -71.79242 | 40613 ft | 430 kts | 228° |
| 2026-05-05 20:11 | 46.36005 | -71.85797 | 40616 ft | 428 kts | 233° |
| 2026-05-05 20:11 | 46.32309 | -71.92540 | 40611 ft | 428 kts | 234° |
| 2026-05-05 20:12 | 46.28657 | -71.99260 | 40611 ft | 427 kts | 234° |
| 2026-05-05 20:12 | 46.24972 | -72.06000 | 40609 ft | 427 kts | 234° |
| 2026-05-05 20:13 | 46.21275 | -72.12722 | 40605 ft | 427 kts | 234° |
| 2026-05-05 20:13 | 46.17570 | -72.19437 | 40602 ft | 427 kts | 234° |
| 2026-05-05 20:14 | 46.13869 | -72.26128 | 40599 ft | 427 kts | 233° |
| 2026-05-05 20:14 | 46.10169 | -72.32816 | 40593 ft | 426 kts | 233° |
| 2026-05-05 20:15 | 46.06465 | -72.39479 | 40587 ft | 426 kts | 233° |
| 2026-05-05 20:15 | 46.03377 | -72.45017 | 40587 ft | 426 kts | 233° |
| 2026-05-05 20:16 | 45.99661 | -72.51673 | 40590 ft | 426 kts | 233° |
| 2026-05-05 20:16 | 45.96134 | -72.58508 | 40594 ft | 425 kts | 237° |
| 2026-05-05 20:17 | 45.92828 | -72.65541 | 40600 ft | 424 kts | 238° |
| 2026-05-05 20:17 | 45.89571 | -72.72543 | 40605 ft | 424 kts | 238° |
| 2026-05-05 20:18 | 45.86287 | -72.79585 | 40608 ft | 424 kts | 238° |
| 2026-05-05 20:18 | 45.82994 | -72.86614 | 40606 ft | 424 kts | 238° |
| 2026-05-05 20:19 | 45.79700 | -72.93631 | 40608 ft | 424 kts | 238° |
| 2026-05-05 20:19 | 45.76393 | -73.00638 | 40609 ft | 424 kts | 238° |
| 2026-05-05 20:20 | 45.73131 | -73.07657 | 40613 ft | 423 kts | 241° |
| 2026-05-05 20:20 | 45.70780 | -73.15339 | 40611 ft | 421 kts | 254° |
| 2026-05-05 20:21 | 45.69712 | -73.23582 | 40613 ft | 422 kts | 260° |
| 2026-05-05 20:21 | 45.68918 | -73.31916 | 40611 ft | 423 kts | 260° |
| 2026-05-05 20:22 | 45.68037 | -73.40175 | 40614 ft | 422 kts | 259° |
| 2026-05-05 20:22 | 45.67141 | -73.48141 | 40614 ft | 422 kts | 259° |
| 2026-05-05 20:23 | 45.66208 | -73.56412 | 40612 ft | 421 kts | 259° |
| 2026-05-05 20:23 | 45.65276 | -73.64688 | 40609 ft | 421 kts | 259° |
| 2026-05-05 20:24 | 45.64343 | -73.72948 | 40611 ft | 421 kts | 259° |
| 2026-05-05 20:24 | 45.63406 | -73.81190 | 40614 ft | 420 kts | 259° |
| 2026-05-05 20:25 | 45.62462 | -73.89428 | 40615 ft | 420 kts | 259° |
| 2026-05-05 20:25 | 45.61518 | -73.97617 | 40615 ft | 420 kts | 259° |
| 2026-05-05 20:26 | 45.60742 | -74.05908 | 40619 ft | 421 kts | 262° |
| 2026-05-05 20:26 | 45.60236 | -74.12643 | 40617 ft | 421 kts | 262° |
| 2026-05-05 20:27 | 45.59595 | -74.20952 | 40613 ft | 420 kts | 262° |
| 2026-05-05 20:27 | 45.58912 | -74.29236 | 40613 ft | 420 kts | 261° |
| 2026-05-05 20:28 | 45.58206 | -74.37529 | 40608 ft | 420 kts | 261° |
| 2026-05-05 20:28 | 45.57494 | -74.45809 | 40607 ft | 421 kts | 261° |
| 2026-05-05 20:29 | 45.56780 | -74.54050 | 40609 ft | 421 kts | 261° |
| 2026-05-05 20:29 | 45.56058 | -74.62337 | 40608 ft | 421 kts | 261° |
| 2026-05-05 20:30 | 45.55330 | -74.70616 | 40609 ft | 421 kts | 261° |
| 2026-05-05 20:30 | 45.54596 | -74.78903 | 40608 ft | 421 kts | 261° |
| 2026-05-05 20:31 | 45.53856 | -74.87177 | 40613 ft | 420 kts | 261° |
| 2026-05-05 20:31 | 45.53110 | -74.95450 | 40613 ft | 420 kts | 261° |
| 2026-05-05 20:32 | 45.52357 | -75.03728 | 40621 ft | 420 kts | 261° |
| 2026-05-05 20:32 | 45.51601 | -75.11974 | 40628 ft | 420 kts | 261° |
| 2026-05-05 20:33 | 45.50838 | -75.20230 | 40633 ft | 420 kts | 261° |
| 2026-05-05 20:33 | 45.50075 | -75.28430 | 40641 ft | 420 kts | 261° |
| 2026-05-05 20:34 | 45.49301 | -75.36671 | 40644 ft | 419 kts | 261° |
| 2026-05-05 20:34 | 45.48522 | -75.44902 | 40646 ft | 419 kts | 260° |
| 2026-05-05 20:35 | 45.47736 | -75.53146 | 40649 ft | 419 kts | 260° |
| 2026-05-05 20:35 | 45.46945 | -75.61377 | 40645 ft | 419 kts | 260° |
| 2026-05-05 20:36 | 45.46148 | -75.69611 | 40646 ft | 420 kts | 260° |
| 2026-05-05 20:36 | 45.45345 | -75.77840 | 40654 ft | 420 kts | 260° |
| 2026-05-05 20:37 | 45.44534 | -75.86089 | 40656 ft | 420 kts | 260° |
| 2026-05-05 20:37 | 45.43696 | -75.94273 | 40658 ft | 420 kts | 259° |
| 2026-05-05 20:38 | 45.42749 | -76.02510 | 40663 ft | 421 kts | 259° |
| 2026-05-05 20:38 | 45.41811 | -76.10735 | 40668 ft | 421 kts | 259° |
| 2026-05-05 20:39 | 45.40870 | -76.18957 | 40673 ft | 421 kts | 258° |
| 2026-05-05 20:39 | 45.39249 | -76.26887 | 40678 ft | 420 kts | 245° |
| 2026-05-05 20:40 | 45.36483 | -76.34205 | 40679 ft | 420 kts | 242° |
| 2026-05-05 20:40 | 45.33612 | -76.41459 | 40685 ft | 421 kts | 242° |
| 2026-05-05 20:41 | 45.30744 | -76.48718 | 40688 ft | 421 kts | 242° |
| 2026-05-05 20:41 | 45.27872 | -76.55981 | 40694 ft | 421 kts | 242° |
| 2026-05-05 20:42 | 45.24997 | -76.63232 | 40695 ft | 422 kts | 242° |
| 2026-05-05 20:42 | 45.22114 | -76.70488 | 40699 ft | 422 kts | 242° |
| 2026-05-05 20:43 | 45.19246 | -76.77689 | 40706 ft | 422 kts | 242° |
| 2026-05-05 20:43 | 45.16349 | -76.84941 | 40708 ft | 423 kts | 242° |
| 2026-05-05 20:44 | 45.13443 | -76.92198 | 40712 ft | 423 kts | 241° |
| 2026-05-05 20:44 | 45.10529 | -76.99456 | 40714 ft | 424 kts | 241° |
| 2026-05-05 20:45 | 45.06143 | -77.10343 | 40727 ft | 425 kts | 241° |
| 2026-05-05 20:45 | 45.03205 | -77.17615 | 40730 ft | 425 kts | 241° |
| 2026-05-05 20:46 | 45.00282 | -77.24830 | 40736 ft | 426 kts | 241° |
| 2026-05-05 20:46 | 44.97316 | -77.32131 | 40732 ft | 426 kts | 241° |
| 2026-05-05 20:47 | 44.94369 | -77.39367 | 40409 ft | 422 kts | 241° |
| 2026-05-05 20:47 | 44.92919 | -77.42919 | 39756 ft | 423 kts | 241° |
| 2026-05-05 20:47 | 44.91450 | -77.46516 | 39154 ft | 423 kts | 242° |
| 2026-05-05 20:48 | 44.89980 | -77.50109 | 38590 ft | 421 kts | 242° |
| 2026-05-05 20:48 | 44.88518 | -77.53677 | 37938 ft | 419 kts | 242° |
| 2026-05-05 20:48 | 44.87066 | -77.57215 | 37244 ft | 417 kts | 242° |
| 2026-05-05 20:48 | 44.85618 | -77.60741 | 36546 ft | 414 kts | 242° |
| 2026-05-05 20:49 | 44.84177 | -77.64244 | 35770 ft | 404 kts | 242° |
| 2026-05-05 20:49 | 44.82783 | -77.67625 | 34549 ft | 397 kts | 243° |
| 2026-05-05 20:49 | 44.81416 | -77.70941 | 33914 ft | 393 kts | 243° |
| 2026-05-05 20:49 | 44.80041 | -77.74274 | 33427 ft | 386 kts | 243° |
| 2026-05-05 20:50 | 44.78697 | -77.77531 | 32931 ft | 380 kts | 243° |
| 2026-05-05 20:50 | 44.77379 | -77.80722 | 32455 ft | 374 kts | 243° |
| 2026-05-05 20:50 | 44.76077 | -77.83869 | 31992 ft | 369 kts | 243° |
| 2026-05-05 20:50 | 44.74803 | -77.86965 | 31570 ft | 363 kts | 243° |
| 2026-05-05 20:51 | 44.73547 | -77.90016 | 31124 ft | 358 kts | 243° |
| 2026-05-05 20:51 | 44.72319 | -77.92994 | 30678 ft | 354 kts | 242° |
| 2026-05-05 20:51 | 44.71130 | -77.95875 | 30256 ft | 350 kts | 242° |
| 2026-05-05 20:51 | 44.69909 | -77.98829 | 29814 ft | 346 kts | 242° |
| 2026-05-05 20:52 | 44.68707 | -78.01733 | 29324 ft | 341 kts | 242° |
| 2026-05-05 20:52 | 44.67520 | -78.04597 | 28881 ft | 337 kts | 242° |
| 2026-05-05 20:52 | 44.66344 | -78.07433 | 28463 ft | 333 kts | 242° |
| 2026-05-05 20:52 | 44.65185 | -78.10223 | 28033 ft | 329 kts | 242° |
| 2026-05-05 20:53 | 44.64039 | -78.12982 | 27626 ft | 325 kts | 242° |
| 2026-05-05 20:53 | 44.62904 | -78.15712 | 27203 ft | 322 kts | 242° |
| 2026-05-05 20:53 | 44.61781 | -78.18411 | 26782 ft | 318 kts | 242° |
| 2026-05-05 20:53 | 44.60665 | -78.21078 | 26370 ft | 315 kts | 242° |
| 2026-05-05 20:54 | 44.59562 | -78.23720 | 25942 ft | 313 kts | 242° |
| 2026-05-05 20:54 | 44.58471 | -78.26340 | 25546 ft | 310 kts | 242° |
| 2026-05-05 20:54 | 44.57384 | -78.28948 | 25120 ft | 307 kts | 242° |
| 2026-05-05 20:54 | 44.56313 | -78.31528 | 24727 ft | 305 kts | 242° |
| 2026-05-05 20:55 | 44.55243 | -78.34081 | 24313 ft | 304 kts | 242° |
| 2026-05-05 20:55 | 44.54171 | -78.36630 | 23894 ft | 303 kts | 242° |
| 2026-05-05 20:55 | 44.53056 | -78.39104 | 23607 ft | 298 kts | 238° |
| 2026-05-05 20:55 | 44.51739 | -78.41400 | 22758 ft | 304 kts | 233° |
| 2026-05-05 20:56 | 44.50318 | -78.43613 | 21308 ft | 308 kts | 232° |
| 2026-05-05 20:56 | 44.48857 | -78.45840 | 19863 ft | 314 kts | 231° |
| 2026-05-05 20:56 | 44.47372 | -78.48089 | 18547 ft | 314 kts | 231° |
| 2026-05-05 20:56 | 44.45908 | -78.50300 | 17386 ft | 310 kts | 231° |
| 2026-05-05 20:57 | 44.44475 | -78.52454 | 17005 ft | 291 kts | 231° |
| 2026-05-05 20:57 | 44.43104 | -78.54520 | 16753 ft | 285 kts | 231° |
| 2026-05-05 20:57 | 44.41812 | -78.56464 | 16607 ft | 270 kts | 231° |
| 2026-05-05 20:57 | 44.40532 | -78.58395 | 16336 ft | 268 kts | 231° |
| 2026-05-05 20:58 | 44.39275 | -78.60291 | 16030 ft | 265 kts | 231° |
| 2026-05-05 20:58 | 44.38025 | -78.62174 | 15731 ft | 263 kts | 231° |
| 2026-05-05 20:58 | 44.36782 | -78.64047 | 15427 ft | 262 kts | 231° |
| 2026-05-05 20:58 | 44.35541 | -78.65914 | 15127 ft | 261 kts | 230° |
| 2026-05-05 20:59 | 44.34304 | -78.67765 | 14833 ft | 260 kts | 230° |
| 2026-05-05 20:59 | 44.33076 | -78.69610 | 14540 ft | 259 kts | 230° |
| 2026-05-05 20:59 | 44.31935 | -78.71324 | 14269 ft | 258 kts | 230° |
| 2026-05-05 20:59 | 44.30713 | -78.73155 | 13968 ft | 257 kts | 230° |
| 2026-05-05 21:00 | 44.29492 | -78.74970 | 13677 ft | 256 kts | 230° |
| 2026-05-05 21:00 | 44.28280 | -78.76787 | 13350 ft | 255 kts | 230° |
| 2026-05-05 21:00 | 44.27080 | -78.78591 | 13057 ft | 254 kts | 230° |
| 2026-05-05 21:00 | 44.26842 | -78.78947 | 12996 ft | 253 kts | 230° |
| 2026-05-05 21:01 | 44.25809 | -78.80492 | 12751 ft | 253 kts | 230° |
| 2026-05-05 21:01 | 44.24609 | -78.82285 | 12457 ft | 252 kts | 230° |
| 2026-05-05 21:01 | 44.23420 | -78.84063 | 12163 ft | 250 kts | 230° |
| 2026-05-05 21:01 | 44.22238 | -78.85831 | 11878 ft | 249 kts | 230° |
| 2026-05-05 21:02 | 44.21052 | -78.87600 | 11589 ft | 249 kts | 230° |
| 2026-05-05 21:02 | 44.19868 | -78.89366 | 11301 ft | 248 kts | 230° |
| 2026-05-05 21:02 | 44.18692 | -78.91120 | 11021 ft | 247 kts | 230° |
| 2026-05-05 21:02 | 44.17520 | -78.92866 | 10767 ft | 244 kts | 230° |
| 2026-05-05 21:03 | 44.16387 | -78.94547 | 10656 ft | 232 kts | 230° |
| 2026-05-05 21:03 | 44.15315 | -78.96138 | 10538 ft | 221 kts | 230° |
| 2026-05-05 21:03 | 44.14286 | -78.97666 | 10420 ft | 211 kts | 230° |
| 2026-05-05 21:03 | 44.13291 | -78.99145 | 10318 ft | 209 kts | 230° |
| 2026-05-05 21:04 | 44.12297 | -79.00624 | 10148 ft | 209 kts | 230° |
| 2026-05-05 21:04 | 44.11639 | -79.01601 | 10009 ft | 209 kts | 230° |
| 2026-05-05 21:04 | 44.10631 | -79.03100 | 9838 ft | 220 kts | 230° |
| 2026-05-05 21:04 | 44.09562 | -79.04691 | 9766 ft | 228 kts | 230° |
| 2026-05-05 21:05 | 44.08477 | -79.06298 | 9441 ft | 227 kts | 230° |
| 2026-05-05 21:05 | 44.07396 | -79.07895 | 9095 ft | 228 kts | 230° |
| 2026-05-05 21:05 | 44.06306 | -79.09508 | 8852 ft | 229 kts | 230° |
| 2026-05-05 21:05 | 44.04857 | -79.11650 | 8551 ft | 230 kts | 230° |
| 2026-05-05 21:06 | 44.04116 | -79.12745 | 8370 ft | 230 kts | 230° |
| 2026-05-05 21:06 | 44.03017 | -79.14370 | 8162 ft | 231 kts | 230° |
| 2026-05-05 21:06 | 44.01911 | -79.16002 | 7911 ft | 232 kts | 230° |
| 2026-05-05 21:06 | 44.00816 | -79.17616 | 7669 ft | 233 kts | 231° |
| 2026-05-05 21:07 | 43.99705 | -79.19255 | 7438 ft | 233 kts | 231° |
| 2026-05-05 21:07 | 43.98595 | -79.20890 | 7205 ft | 233 kts | 231° |
| 2026-05-05 21:07 | 43.97482 | -79.22530 | 6954 ft | 232 kts | 231° |
| 2026-05-05 21:07 | 43.96372 | -79.24165 | 6725 ft | 234 kts | 231° |
| 2026-05-05 21:08 | 43.95254 | -79.25810 | 6484 ft | 234 kts | 231° |
| 2026-05-05 21:08 | 43.94137 | -79.27453 | 6243 ft | 234 kts | 231° |
| 2026-05-05 21:08 | 43.93031 | -79.29080 | 5988 ft | 234 kts | 231° |
| 2026-05-05 21:08 | 43.91910 | -79.30731 | 5756 ft | 236 kts | 231° |
| 2026-05-05 21:09 | 43.90778 | -79.32398 | 5518 ft | 238 kts | 231° |
| 2026-05-05 21:09 | 43.89642 | -79.34076 | 5187 ft | 239 kts | 231° |
| 2026-05-05 21:09 | 43.88494 | -79.35750 | 4784 ft | 240 kts | 230° |
| 2026-05-05 21:09 | 43.87338 | -79.37424 | 4404 ft | 242 kts | 230° |
| 2026-05-05 21:10 | 43.86168 | -79.39126 | 4003 ft | 245 kts | 230° |
| 2026-05-05 21:10 | 43.84992 | -79.40837 | 3601 ft | 245 kts | 230° |
| 2026-05-05 21:10 | 43.83819 | -79.42540 | 3360 ft | 240 kts | 229° |
| 2026-05-05 21:10 | 43.82691 | -79.44159 | 3273 ft | 228 kts | 229° |
| 2026-05-05 21:11 | 43.81618 | -79.45709 | 3180 ft | 218 kts | 229° |
| 2026-05-05 21:11 | 43.80598 | -79.47201 | 3090 ft | 208 kts | 230° |
| 2026-05-05 21:11 | 43.79627 | -79.48619 | 3008 ft | 198 kts | 229° |
| 2026-05-05 21:11 | 43.78705 | -79.49953 | 2993 ft | 186 kts | 230° |
| 2026-05-05 21:12 | 43.77821 | -79.51241 | 3003 ft | 185 kts | 230° |
| 2026-05-05 21:12 | 43.76936 | -79.52533 | 2851 ft | 185 kts | 230° |
| 2026-05-05 21:12 | 43.76048 | -79.53835 | 2589 ft | 187 kts | 230° |
| 2026-05-05 21:12 | 43.75181 | -79.55093 | 2354 ft | 180 kts | 230° |
| 2026-05-05 21:13 | 43.74328 | -79.56335 | 2091 ft | 172 kts | 230° |
| 2026-05-05 21:13 | 43.73523 | -79.57510 | 1855 ft | 164 kts | 231° |
| 2026-05-05 21:13 | 43.72765 | -79.58617 | 1628 ft | 155 kts | 231° |
| 2026-05-05 21:13 | 43.72041 | -79.59672 | 1405 ft | 150 kts | 231° |
| 2026-05-05 21:14 | 43.71373 | -79.60609 | 1183 ft | 143 kts | 226° |
| 2026-05-05 21:14 | 43.70707 | -79.61567 | 1001 ft | 134 kts | 225° |
| 2026-05-05 21:14 | 43.70067 | -79.62486 | 806 ft | 130 kts | 229° |
| 2026-05-05 21:14 | 43.69425 | -79.63455 | 640 ft | 140 kts | 225° |
| 2026-05-05 21:15 | 43.68803 | -79.64370 | 578 ft | 113 kts | 230° |
| 2026-05-05 21:15 | 43.68395 | -79.64983 | 575 ft | 55 kts | 225° |
| 2026-05-05 21:15 | 43.68299 | -79.65121 | 577 ft | 14 kts | 226° |
| 2026-05-05 21:15 | 43.68221 | -79.65233 | 574 ft | 17 kts | 226° |
| 2026-05-05 21:16 | 43.68134 | -79.65360 | 574 ft | 19 kts | 226° |
| 2026-05-05 21:16 | 43.68025 | -79.65443 | 571 ft | 19 kts | 201° |
| 2026-05-05 21:16 | 43.67895 | -79.65486 | 572 ft | 19 kts | 178° |
| 2026-05-05 21:16 | 43.67854 | -79.65374 | 573 ft | 16 kts | 65° |
| 2026-05-05 21:17 | 43.67930 | -79.65251 | 577 ft | 18 kts | 46° |
| 2026-05-05 21:17 | 43.68467 | -79.62331 | 574 ft | 1 kts | 330° |